<?xml version="1.0" encoding="UTF-8" standalone="no" ?>
<gpx xmlns="http://www.topografix.com/GPX/1/1" xmlns:xsi="http://www.w3.org/2001/XMLSchema-instance" xsi:schemaLocation="http://www.topografix.com/GPX/1/1 http://www.topografix.com/GPX/1/1/gpx.xsd" version="1.1" creator="VisuGPX - https://www.visugpx.com">
  <metadata>
    <name>20200519 BUTTES DE ROSNES</name>
    <desc><![CDATA[Butte de Rosne]]></desc>
  </metadata>
  <trk>
    <name><![CDATA[20200519 BUTTES DE ROSNES_1]]></name>
    <trkseg>
      <trkpt lat="49.1807" lon="2.02864">
        <ele>215</ele>
        <time>2020-05-19T10:41:36Z</time>
      </trkpt>
      <trkpt lat="49.1807" lon="2.02864">
        <ele>215</ele>
        <time>2020-05-19T10:41:37Z</time>
      </trkpt>
      <trkpt lat="49.18068" lon="2.02866">
        <ele>221</ele>
        <time>2020-05-19T10:41:44Z</time>
      </trkpt>
      <trkpt lat="49.18074" lon="2.02866">
        <ele>220</ele>
        <time>2020-05-19T10:41:51Z</time>
      </trkpt>
      <trkpt lat="49.18078" lon="2.02869">
        <ele>215</ele>
        <time>2020-05-19T10:41:58Z</time>
      </trkpt>
      <trkpt lat="49.18083" lon="2.02866">
        <ele>217</ele>
        <time>2020-05-19T10:42:05Z</time>
      </trkpt>
      <trkpt lat="49.18087" lon="2.02863">
        <ele>216</ele>
        <time>2020-05-19T10:42:12Z</time>
      </trkpt>
      <trkpt lat="49.18094" lon="2.02859">
        <ele>214</ele>
        <time>2020-05-19T10:42:18Z</time>
      </trkpt>
      <trkpt lat="49.18102" lon="2.02855">
        <ele>214</ele>
        <time>2020-05-19T10:42:23Z</time>
      </trkpt>
      <trkpt lat="49.18108" lon="2.02853">
        <ele>213</ele>
        <time>2020-05-19T10:42:30Z</time>
      </trkpt>
      <trkpt lat="49.18114" lon="2.02847">
        <ele>213</ele>
        <time>2020-05-19T10:42:37Z</time>
      </trkpt>
      <trkpt lat="49.18118" lon="2.02843">
        <ele>214</ele>
        <time>2020-05-19T10:42:44Z</time>
      </trkpt>
      <trkpt lat="49.18122" lon="2.02839">
        <ele>214</ele>
        <time>2020-05-19T10:42:51Z</time>
      </trkpt>
      <trkpt lat="49.18126" lon="2.02839">
        <ele>213</ele>
        <time>2020-05-19T10:42:59Z</time>
      </trkpt>
      <trkpt lat="49.18133" lon="2.02836">
        <ele>211</ele>
        <time>2020-05-19T10:43:05Z</time>
      </trkpt>
      <trkpt lat="49.18139" lon="2.02833">
        <ele>211</ele>
        <time>2020-05-19T10:43:12Z</time>
      </trkpt>
      <trkpt lat="49.18147" lon="2.02829">
        <ele>210</ele>
        <time>2020-05-19T10:43:19Z</time>
      </trkpt>
      <trkpt lat="49.18152" lon="2.02825">
        <ele>211</ele>
        <time>2020-05-19T10:43:26Z</time>
      </trkpt>
      <trkpt lat="49.18154" lon="2.02823">
        <ele>212</ele>
        <time>2020-05-19T10:43:33Z</time>
      </trkpt>
      <trkpt lat="49.18158" lon="2.02818">
        <ele>212</ele>
        <time>2020-05-19T10:43:41Z</time>
      </trkpt>
      <trkpt lat="49.18161" lon="2.02812">
        <ele>212</ele>
        <time>2020-05-19T10:43:48Z</time>
      </trkpt>
      <trkpt lat="49.18167" lon="2.02808">
        <ele>213</ele>
        <time>2020-05-19T10:43:54Z</time>
      </trkpt>
      <trkpt lat="49.18175" lon="2.02806">
        <ele>213</ele>
        <time>2020-05-19T10:44:01Z</time>
      </trkpt>
      <trkpt lat="49.18182" lon="2.02807">
        <ele>214</ele>
        <time>2020-05-19T10:44:08Z</time>
      </trkpt>
      <trkpt lat="49.18186" lon="2.02809">
        <ele>215</ele>
        <time>2020-05-19T10:44:15Z</time>
      </trkpt>
      <trkpt lat="49.18189" lon="2.02815">
        <ele>217</ele>
        <time>2020-05-19T10:44:22Z</time>
      </trkpt>
      <trkpt lat="49.18195" lon="2.02818">
        <ele>217</ele>
        <time>2020-05-19T10:44:30Z</time>
      </trkpt>
      <trkpt lat="49.18198" lon="2.02822">
        <ele>218</ele>
        <time>2020-05-19T10:44:37Z</time>
      </trkpt>
      <trkpt lat="49.18204" lon="2.02827">
        <ele>220</ele>
        <time>2020-05-19T10:44:43Z</time>
      </trkpt>
      <trkpt lat="49.18211" lon="2.02829">
        <ele>221</ele>
        <time>2020-05-19T10:44:50Z</time>
      </trkpt>
      <trkpt lat="49.18217" lon="2.02833">
        <ele>221</ele>
        <time>2020-05-19T10:44:57Z</time>
      </trkpt>
      <trkpt lat="49.18221" lon="2.02838">
        <ele>220</ele>
        <time>2020-05-19T10:45:04Z</time>
      </trkpt>
      <trkpt lat="49.18225" lon="2.02844">
        <ele>219</ele>
        <time>2020-05-19T10:45:11Z</time>
      </trkpt>
      <trkpt lat="49.18231" lon="2.02845">
        <ele>218</ele>
        <time>2020-05-19T10:45:18Z</time>
      </trkpt>
      <trkpt lat="49.18234" lon="2.02845">
        <ele>219</ele>
        <time>2020-05-19T10:45:25Z</time>
      </trkpt>
      <trkpt lat="49.18238" lon="2.02847">
        <ele>219</ele>
        <time>2020-05-19T10:45:33Z</time>
      </trkpt>
      <trkpt lat="49.18245" lon="2.02847">
        <ele>216</ele>
        <time>2020-05-19T10:45:40Z</time>
      </trkpt>
      <trkpt lat="49.1825" lon="2.02848">
        <ele>215</ele>
        <time>2020-05-19T10:45:47Z</time>
      </trkpt>
      <trkpt lat="49.18255" lon="2.02852">
        <ele>216</ele>
        <time>2020-05-19T10:45:54Z</time>
      </trkpt>
      <trkpt lat="49.1826" lon="2.02853">
        <ele>215</ele>
        <time>2020-05-19T10:46:00Z</time>
      </trkpt>
      <trkpt lat="49.18265" lon="2.02854">
        <ele>215</ele>
        <time>2020-05-19T10:46:07Z</time>
      </trkpt>
      <trkpt lat="49.1827" lon="2.02855">
        <ele>215</ele>
        <time>2020-05-19T10:46:14Z</time>
      </trkpt>
      <trkpt lat="49.18273" lon="2.02856">
        <ele>216</ele>
        <time>2020-05-19T10:46:21Z</time>
      </trkpt>
      <trkpt lat="49.18278" lon="2.02859">
        <ele>216</ele>
        <time>2020-05-19T10:46:28Z</time>
      </trkpt>
      <trkpt lat="49.1828" lon="2.02859">
        <ele>219</ele>
        <time>2020-05-19T10:46:35Z</time>
      </trkpt>
      <trkpt lat="49.18281" lon="2.02858">
        <ele>220</ele>
        <time>2020-05-19T10:46:42Z</time>
      </trkpt>
      <trkpt lat="49.18283" lon="2.02854">
        <ele>220</ele>
        <time>2020-05-19T10:46:49Z</time>
      </trkpt>
      <trkpt lat="49.18284" lon="2.02851">
        <ele>221</ele>
        <time>2020-05-19T10:46:57Z</time>
      </trkpt>
      <trkpt lat="49.18287" lon="2.02843">
        <ele>221</ele>
        <time>2020-05-19T10:47:04Z</time>
      </trkpt>
      <trkpt lat="49.1829" lon="2.02837">
        <ele>223</ele>
        <time>2020-05-19T10:47:11Z</time>
      </trkpt>
      <trkpt lat="49.1829" lon="2.02828">
        <ele>223</ele>
        <time>2020-05-19T10:47:18Z</time>
      </trkpt>
      <trkpt lat="49.18291" lon="2.0282">
        <ele>224</ele>
        <time>2020-05-19T10:47:25Z</time>
      </trkpt>
      <trkpt lat="49.18292" lon="2.02814">
        <ele>226</ele>
        <time>2020-05-19T10:47:32Z</time>
      </trkpt>
      <trkpt lat="49.18295" lon="2.02808">
        <ele>226</ele>
        <time>2020-05-19T10:47:39Z</time>
      </trkpt>
      <trkpt lat="49.18297" lon="2.02801">
        <ele>226</ele>
        <time>2020-05-19T10:47:45Z</time>
      </trkpt>
      <trkpt lat="49.18297" lon="2.02797">
        <ele>227</ele>
        <time>2020-05-19T10:47:52Z</time>
      </trkpt>
      <trkpt lat="49.183" lon="2.02787">
        <ele>227</ele>
        <time>2020-05-19T10:47:59Z</time>
      </trkpt>
      <trkpt lat="49.18303" lon="2.02782">
        <ele>227</ele>
        <time>2020-05-19T10:48:06Z</time>
      </trkpt>
      <trkpt lat="49.18307" lon="2.02773">
        <ele>227</ele>
        <time>2020-05-19T10:48:13Z</time>
      </trkpt>
      <trkpt lat="49.1831" lon="2.02766">
        <ele>227</ele>
        <time>2020-05-19T10:48:20Z</time>
      </trkpt>
      <trkpt lat="49.18314" lon="2.02763">
        <ele>227</ele>
        <time>2020-05-19T10:48:27Z</time>
      </trkpt>
      <trkpt lat="49.18318" lon="2.02759">
        <ele>225</ele>
        <time>2020-05-19T10:48:35Z</time>
      </trkpt>
      <trkpt lat="49.18323" lon="2.02756">
        <ele>224</ele>
        <time>2020-05-19T10:48:42Z</time>
      </trkpt>
      <trkpt lat="49.18327" lon="2.02751">
        <ele>223</ele>
        <time>2020-05-19T10:48:48Z</time>
      </trkpt>
      <trkpt lat="49.18332" lon="2.02746">
        <ele>222</ele>
        <time>2020-05-19T10:48:55Z</time>
      </trkpt>
      <trkpt lat="49.18337" lon="2.02744">
        <ele>222</ele>
        <time>2020-05-19T10:49:02Z</time>
      </trkpt>
      <trkpt lat="49.18342" lon="2.02738">
        <ele>222</ele>
        <time>2020-05-19T10:49:09Z</time>
      </trkpt>
      <trkpt lat="49.18349" lon="2.02733">
        <ele>221</ele>
        <time>2020-05-19T10:49:16Z</time>
      </trkpt>
      <trkpt lat="49.18355" lon="2.02729">
        <ele>221</ele>
        <time>2020-05-19T10:49:23Z</time>
      </trkpt>
      <trkpt lat="49.1836" lon="2.02725">
        <ele>221</ele>
        <time>2020-05-19T10:49:30Z</time>
      </trkpt>
      <trkpt lat="49.18364" lon="2.0272">
        <ele>221</ele>
        <time>2020-05-19T10:49:37Z</time>
      </trkpt>
      <trkpt lat="49.18369" lon="2.02715">
        <ele>220</ele>
        <time>2020-05-19T10:49:44Z</time>
      </trkpt>
      <trkpt lat="49.18372" lon="2.02707">
        <ele>220</ele>
        <time>2020-05-19T10:49:51Z</time>
      </trkpt>
      <trkpt lat="49.18376" lon="2.02699">
        <ele>219</ele>
        <time>2020-05-19T10:49:58Z</time>
      </trkpt>
      <trkpt lat="49.18381" lon="2.02692">
        <ele>218</ele>
        <time>2020-05-19T10:50:05Z</time>
      </trkpt>
      <trkpt lat="49.18384" lon="2.02684">
        <ele>218</ele>
        <time>2020-05-19T10:50:12Z</time>
      </trkpt>
      <trkpt lat="49.18387" lon="2.02676">
        <ele>219</ele>
        <time>2020-05-19T10:50:19Z</time>
      </trkpt>
      <trkpt lat="49.1839" lon="2.02667">
        <ele>219</ele>
        <time>2020-05-19T10:50:26Z</time>
      </trkpt>
      <trkpt lat="49.18392" lon="2.02657">
        <ele>220</ele>
        <time>2020-05-19T10:50:33Z</time>
      </trkpt>
      <trkpt lat="49.18394" lon="2.02649">
        <ele>221</ele>
        <time>2020-05-19T10:50:40Z</time>
      </trkpt>
      <trkpt lat="49.18398" lon="2.02638">
        <ele>222</ele>
        <time>2020-05-19T10:50:47Z</time>
      </trkpt>
      <trkpt lat="49.18399" lon="2.02627">
        <ele>223</ele>
        <time>2020-05-19T10:50:53Z</time>
      </trkpt>
      <trkpt lat="49.18402" lon="2.02619">
        <ele>223</ele>
        <time>2020-05-19T10:51:00Z</time>
      </trkpt>
      <trkpt lat="49.18404" lon="2.02608">
        <ele>224</ele>
        <time>2020-05-19T10:51:07Z</time>
      </trkpt>
      <trkpt lat="49.18407" lon="2.02596">
        <ele>224</ele>
        <time>2020-05-19T10:51:14Z</time>
      </trkpt>
      <trkpt lat="49.18408" lon="2.0259">
        <ele>223</ele>
        <time>2020-05-19T10:51:21Z</time>
      </trkpt>
      <trkpt lat="49.18411" lon="2.02579">
        <ele>223</ele>
        <time>2020-05-19T10:51:28Z</time>
      </trkpt>
      <trkpt lat="49.18412" lon="2.0257">
        <ele>223</ele>
        <time>2020-05-19T10:51:35Z</time>
      </trkpt>
      <trkpt lat="49.18415" lon="2.0256">
        <ele>223</ele>
        <time>2020-05-19T10:51:42Z</time>
      </trkpt>
      <trkpt lat="49.18419" lon="2.02551">
        <ele>222</ele>
        <time>2020-05-19T10:51:49Z</time>
      </trkpt>
      <trkpt lat="49.18422" lon="2.0254">
        <ele>221</ele>
        <time>2020-05-19T10:51:56Z</time>
      </trkpt>
      <trkpt lat="49.18423" lon="2.02528">
        <ele>220</ele>
        <time>2020-05-19T10:52:03Z</time>
      </trkpt>
      <trkpt lat="49.18424" lon="2.0252">
        <ele>220</ele>
        <time>2020-05-19T10:52:10Z</time>
      </trkpt>
      <trkpt lat="49.18426" lon="2.02508">
        <ele>220</ele>
        <time>2020-05-19T10:52:15Z</time>
      </trkpt>
      <trkpt lat="49.18427" lon="2.02496">
        <ele>220</ele>
        <time>2020-05-19T10:52:21Z</time>
      </trkpt>
      <trkpt lat="49.18429" lon="2.02485">
        <ele>221</ele>
        <time>2020-05-19T10:52:27Z</time>
      </trkpt>
      <trkpt lat="49.18432" lon="2.02475">
        <ele>222</ele>
        <time>2020-05-19T10:52:34Z</time>
      </trkpt>
      <trkpt lat="49.18433" lon="2.02468">
        <ele>223</ele>
        <time>2020-05-19T10:52:41Z</time>
      </trkpt>
      <trkpt lat="49.18438" lon="2.02458">
        <ele>223</ele>
        <time>2020-05-19T10:52:47Z</time>
      </trkpt>
      <trkpt lat="49.1844" lon="2.02449">
        <ele>223</ele>
        <time>2020-05-19T10:52:54Z</time>
      </trkpt>
      <trkpt lat="49.18442" lon="2.02438">
        <ele>223</ele>
        <time>2020-05-19T10:53:01Z</time>
      </trkpt>
      <trkpt lat="49.18446" lon="2.02428">
        <ele>222</ele>
        <time>2020-05-19T10:53:07Z</time>
      </trkpt>
      <trkpt lat="49.18448" lon="2.02415">
        <ele>221</ele>
        <time>2020-05-19T10:53:13Z</time>
      </trkpt>
      <trkpt lat="49.18451" lon="2.02404">
        <ele>220</ele>
        <time>2020-05-19T10:53:20Z</time>
      </trkpt>
      <trkpt lat="49.18455" lon="2.02394">
        <ele>220</ele>
        <time>2020-05-19T10:53:26Z</time>
      </trkpt>
      <trkpt lat="49.18459" lon="2.02383">
        <ele>219</ele>
        <time>2020-05-19T10:53:32Z</time>
      </trkpt>
      <trkpt lat="49.18464" lon="2.02374">
        <ele>218</ele>
        <time>2020-05-19T10:53:38Z</time>
      </trkpt>
      <trkpt lat="49.1847" lon="2.02365">
        <ele>218</ele>
        <time>2020-05-19T10:53:44Z</time>
      </trkpt>
      <trkpt lat="49.18475" lon="2.02358">
        <ele>218</ele>
        <time>2020-05-19T10:53:50Z</time>
      </trkpt>
      <trkpt lat="49.18481" lon="2.0235">
        <ele>218</ele>
        <time>2020-05-19T10:53:57Z</time>
      </trkpt>
      <trkpt lat="49.18486" lon="2.02341">
        <ele>219</ele>
        <time>2020-05-19T10:54:04Z</time>
      </trkpt>
      <trkpt lat="49.18491" lon="2.02332">
        <ele>219</ele>
        <time>2020-05-19T10:54:11Z</time>
      </trkpt>
      <trkpt lat="49.18497" lon="2.02323">
        <ele>218</ele>
        <time>2020-05-19T10:54:18Z</time>
      </trkpt>
      <trkpt lat="49.18501" lon="2.02313">
        <ele>218</ele>
        <time>2020-05-19T10:54:25Z</time>
      </trkpt>
      <trkpt lat="49.18506" lon="2.02302">
        <ele>217</ele>
        <time>2020-05-19T10:54:32Z</time>
      </trkpt>
      <trkpt lat="49.18506" lon="2.02292">
        <ele>216</ele>
        <time>2020-05-19T10:54:39Z</time>
      </trkpt>
      <trkpt lat="49.18507" lon="2.02284">
        <ele>216</ele>
        <time>2020-05-19T10:54:46Z</time>
      </trkpt>
      <trkpt lat="49.18505" lon="2.02276">
        <ele>216</ele>
        <time>2020-05-19T10:54:53Z</time>
      </trkpt>
      <trkpt lat="49.18505" lon="2.02268">
        <ele>216</ele>
        <time>2020-05-19T10:55:00Z</time>
      </trkpt>
      <trkpt lat="49.18505" lon="2.02256">
        <ele>219</ele>
        <time>2020-05-19T10:55:07Z</time>
      </trkpt>
      <trkpt lat="49.18502" lon="2.02245">
        <ele>218</ele>
        <time>2020-05-19T10:55:14Z</time>
      </trkpt>
      <trkpt lat="49.18501" lon="2.02233">
        <ele>219</ele>
        <time>2020-05-19T10:55:21Z</time>
      </trkpt>
      <trkpt lat="49.185" lon="2.02224">
        <ele>219</ele>
        <time>2020-05-19T10:55:28Z</time>
      </trkpt>
      <trkpt lat="49.18501" lon="2.02215">
        <ele>222</ele>
        <time>2020-05-19T10:55:35Z</time>
      </trkpt>
      <trkpt lat="49.185" lon="2.02208">
        <ele>223</ele>
        <time>2020-05-19T10:55:42Z</time>
      </trkpt>
      <trkpt lat="49.18496" lon="2.02207">
        <ele>223</ele>
        <time>2020-05-19T10:55:49Z</time>
      </trkpt>
      <trkpt lat="49.18491" lon="2.02204">
        <ele>224</ele>
        <time>2020-05-19T10:55:56Z</time>
      </trkpt>
      <trkpt lat="49.18487" lon="2.02202">
        <ele>225</ele>
        <time>2020-05-19T10:56:03Z</time>
      </trkpt>
      <trkpt lat="49.18482" lon="2.022">
        <ele>226</ele>
        <time>2020-05-19T10:56:10Z</time>
      </trkpt>
      <trkpt lat="49.18476" lon="2.02196">
        <ele>228</ele>
        <time>2020-05-19T10:56:17Z</time>
      </trkpt>
      <trkpt lat="49.18471" lon="2.02192">
        <ele>230</ele>
        <time>2020-05-19T10:56:24Z</time>
      </trkpt>
      <trkpt lat="49.18465" lon="2.0219">
        <ele>230</ele>
        <time>2020-05-19T10:56:31Z</time>
      </trkpt>
      <trkpt lat="49.18459" lon="2.02184">
        <ele>231</ele>
        <time>2020-05-19T10:56:38Z</time>
      </trkpt>
      <trkpt lat="49.18453" lon="2.02181">
        <ele>231</ele>
        <time>2020-05-19T10:56:45Z</time>
      </trkpt>
      <trkpt lat="49.18446" lon="2.02175">
        <ele>230</ele>
        <time>2020-05-19T10:56:52Z</time>
      </trkpt>
      <trkpt lat="49.1844" lon="2.02171">
        <ele>231</ele>
        <time>2020-05-19T10:56:59Z</time>
      </trkpt>
      <trkpt lat="49.18433" lon="2.02165">
        <ele>229</ele>
        <time>2020-05-19T10:57:06Z</time>
      </trkpt>
      <trkpt lat="49.18426" lon="2.0216">
        <ele>228</ele>
        <time>2020-05-19T10:57:12Z</time>
      </trkpt>
      <trkpt lat="49.1842" lon="2.02155">
        <ele>230</ele>
        <time>2020-05-19T10:57:19Z</time>
      </trkpt>
      <trkpt lat="49.18414" lon="2.02146">
        <ele>232</ele>
        <time>2020-05-19T10:57:26Z</time>
      </trkpt>
      <trkpt lat="49.1841" lon="2.02137">
        <ele>233</ele>
        <time>2020-05-19T10:57:32Z</time>
      </trkpt>
      <trkpt lat="49.18406" lon="2.02128">
        <ele>232</ele>
        <time>2020-05-19T10:57:39Z</time>
      </trkpt>
      <trkpt lat="49.18402" lon="2.02125">
        <ele>231</ele>
        <time>2020-05-19T10:57:46Z</time>
      </trkpt>
      <trkpt lat="49.18397" lon="2.02115">
        <ele>232</ele>
        <time>2020-05-19T10:57:52Z</time>
      </trkpt>
      <trkpt lat="49.18392" lon="2.02107">
        <ele>230</ele>
        <time>2020-05-19T10:57:59Z</time>
      </trkpt>
      <trkpt lat="49.18388" lon="2.02099">
        <ele>230</ele>
        <time>2020-05-19T10:58:06Z</time>
      </trkpt>
      <trkpt lat="49.18382" lon="2.02091">
        <ele>231</ele>
        <time>2020-05-19T10:58:13Z</time>
      </trkpt>
      <trkpt lat="49.18377" lon="2.02083">
        <ele>230</ele>
        <time>2020-05-19T10:58:20Z</time>
      </trkpt>
      <trkpt lat="49.18371" lon="2.02074">
        <ele>230</ele>
        <time>2020-05-19T10:58:27Z</time>
      </trkpt>
      <trkpt lat="49.18365" lon="2.02067">
        <ele>228</ele>
        <time>2020-05-19T10:58:34Z</time>
      </trkpt>
      <trkpt lat="49.18361" lon="2.02058">
        <ele>227</ele>
        <time>2020-05-19T10:58:40Z</time>
      </trkpt>
      <trkpt lat="49.18355" lon="2.02049">
        <ele>226</ele>
        <time>2020-05-19T10:58:46Z</time>
      </trkpt>
      <trkpt lat="49.18349" lon="2.02042">
        <ele>226</ele>
        <time>2020-05-19T10:58:53Z</time>
      </trkpt>
      <trkpt lat="49.18343" lon="2.02035">
        <ele>225</ele>
        <time>2020-05-19T10:58:59Z</time>
      </trkpt>
      <trkpt lat="49.18337" lon="2.02026">
        <ele>223</ele>
        <time>2020-05-19T10:59:05Z</time>
      </trkpt>
      <trkpt lat="49.18331" lon="2.0202">
        <ele>222</ele>
        <time>2020-05-19T10:59:11Z</time>
      </trkpt>
      <trkpt lat="49.18326" lon="2.0201">
        <ele>222</ele>
        <time>2020-05-19T10:59:17Z</time>
      </trkpt>
      <trkpt lat="49.18322" lon="2.02">
        <ele>223</ele>
        <time>2020-05-19T10:59:23Z</time>
      </trkpt>
      <trkpt lat="49.18317" lon="2.01992">
        <ele>222</ele>
        <time>2020-05-19T10:59:29Z</time>
      </trkpt>
      <trkpt lat="49.18312" lon="2.01986">
        <ele>222</ele>
        <time>2020-05-19T10:59:36Z</time>
      </trkpt>
      <trkpt lat="49.18308" lon="2.01976">
        <ele>221</ele>
        <time>2020-05-19T10:59:43Z</time>
      </trkpt>
      <trkpt lat="49.18305" lon="2.01967">
        <ele>222</ele>
        <time>2020-05-19T10:59:50Z</time>
      </trkpt>
      <trkpt lat="49.183" lon="2.01958">
        <ele>224</ele>
        <time>2020-05-19T10:59:56Z</time>
      </trkpt>
      <trkpt lat="49.18296" lon="2.01949">
        <ele>224</ele>
        <time>2020-05-19T11:00:03Z</time>
      </trkpt>
      <trkpt lat="49.18291" lon="2.01941">
        <ele>223</ele>
        <time>2020-05-19T11:00:10Z</time>
      </trkpt>
      <trkpt lat="49.18286" lon="2.01932">
        <ele>222</ele>
        <time>2020-05-19T11:00:16Z</time>
      </trkpt>
      <trkpt lat="49.18279" lon="2.01925">
        <ele>221</ele>
        <time>2020-05-19T11:00:22Z</time>
      </trkpt>
      <trkpt lat="49.18272" lon="2.01918">
        <ele>220</ele>
        <time>2020-05-19T11:00:28Z</time>
      </trkpt>
      <trkpt lat="49.18267" lon="2.0191">
        <ele>220</ele>
        <time>2020-05-19T11:00:33Z</time>
      </trkpt>
      <trkpt lat="49.1826" lon="2.01902">
        <ele>219</ele>
        <time>2020-05-19T11:00:39Z</time>
      </trkpt>
      <trkpt lat="49.18255" lon="2.01895">
        <ele>218</ele>
        <time>2020-05-19T11:00:46Z</time>
      </trkpt>
      <trkpt lat="49.18249" lon="2.01886">
        <ele>218</ele>
        <time>2020-05-19T11:00:52Z</time>
      </trkpt>
      <trkpt lat="49.18245" lon="2.01876">
        <ele>218</ele>
        <time>2020-05-19T11:00:58Z</time>
      </trkpt>
      <trkpt lat="49.18242" lon="2.01869">
        <ele>219</ele>
        <time>2020-05-19T11:01:05Z</time>
      </trkpt>
      <trkpt lat="49.18236" lon="2.01859">
        <ele>218</ele>
        <time>2020-05-19T11:01:12Z</time>
      </trkpt>
      <trkpt lat="49.18231" lon="2.01849">
        <ele>216</ele>
        <time>2020-05-19T11:01:19Z</time>
      </trkpt>
      <trkpt lat="49.18227" lon="2.01839">
        <ele>217</ele>
        <time>2020-05-19T11:01:26Z</time>
      </trkpt>
      <trkpt lat="49.18221" lon="2.01832">
        <ele>216</ele>
        <time>2020-05-19T11:01:32Z</time>
      </trkpt>
      <trkpt lat="49.18215" lon="2.01823">
        <ele>215</ele>
        <time>2020-05-19T11:01:38Z</time>
      </trkpt>
      <trkpt lat="49.1821" lon="2.01816">
        <ele>214</ele>
        <time>2020-05-19T11:01:43Z</time>
      </trkpt>
      <trkpt lat="49.18204" lon="2.01806">
        <ele>214</ele>
        <time>2020-05-19T11:01:49Z</time>
      </trkpt>
      <trkpt lat="49.18199" lon="2.018">
        <ele>215</ele>
        <time>2020-05-19T11:01:56Z</time>
      </trkpt>
      <trkpt lat="49.18192" lon="2.01795">
        <ele>214</ele>
        <time>2020-05-19T11:02:03Z</time>
      </trkpt>
      <trkpt lat="49.18186" lon="2.01787">
        <ele>214</ele>
        <time>2020-05-19T11:02:10Z</time>
      </trkpt>
      <trkpt lat="49.18181" lon="2.01779">
        <ele>214</ele>
        <time>2020-05-19T11:02:16Z</time>
      </trkpt>
      <trkpt lat="49.18176" lon="2.01772">
        <ele>214</ele>
        <time>2020-05-19T11:02:23Z</time>
      </trkpt>
      <trkpt lat="49.18171" lon="2.01763">
        <ele>215</ele>
        <time>2020-05-19T11:02:28Z</time>
      </trkpt>
      <trkpt lat="49.18167" lon="2.01754">
        <ele>215</ele>
        <time>2020-05-19T11:02:35Z</time>
      </trkpt>
      <trkpt lat="49.18162" lon="2.01746">
        <ele>212</ele>
        <time>2020-05-19T11:02:39Z</time>
      </trkpt>
      <trkpt lat="49.18158" lon="2.0174">
        <ele>212</ele>
        <time>2020-05-19T11:02:46Z</time>
      </trkpt>
      <trkpt lat="49.18152" lon="2.01731">
        <ele>211</ele>
        <time>2020-05-19T11:02:53Z</time>
      </trkpt>
      <trkpt lat="49.18147" lon="2.01721">
        <ele>211</ele>
        <time>2020-05-19T11:02:59Z</time>
      </trkpt>
      <trkpt lat="49.18142" lon="2.01712">
        <ele>210</ele>
        <time>2020-05-19T11:03:04Z</time>
      </trkpt>
      <trkpt lat="49.18136" lon="2.01705">
        <ele>208</ele>
        <time>2020-05-19T11:03:09Z</time>
      </trkpt>
      <trkpt lat="49.18135" lon="2.01701">
        <ele>209</ele>
        <time>2020-05-19T11:03:16Z</time>
      </trkpt>
      <trkpt lat="49.18132" lon="2.01697">
        <ele>210</ele>
        <time>2020-05-19T11:03:23Z</time>
      </trkpt>
      <trkpt lat="49.18129" lon="2.01693">
        <ele>213</ele>
        <time>2020-05-19T11:03:30Z</time>
      </trkpt>
      <trkpt lat="49.18129" lon="2.01693">
        <ele>213</ele>
        <time>2020-05-19T11:03:35Z</time>
      </trkpt>
      <trkpt lat="49.18129" lon="2.0168">
        <ele>217</ele>
        <time>2020-05-19T11:03:47Z</time>
      </trkpt>
      <trkpt lat="49.18123" lon="2.0167">
        <ele>221</ele>
        <time>2020-05-19T11:03:51Z</time>
      </trkpt>
      <trkpt lat="49.18119" lon="2.01661">
        <ele>223</ele>
        <time>2020-05-19T11:03:57Z</time>
      </trkpt>
      <trkpt lat="49.18111" lon="2.01658">
        <ele>225</ele>
        <time>2020-05-19T11:04:04Z</time>
      </trkpt>
      <trkpt lat="49.18105" lon="2.01652">
        <ele>225</ele>
        <time>2020-05-19T11:04:10Z</time>
      </trkpt>
      <trkpt lat="49.18101" lon="2.01648">
        <ele>224</ele>
        <time>2020-05-19T11:04:17Z</time>
      </trkpt>
      <trkpt lat="49.18096" lon="2.01642">
        <ele>225</ele>
        <time>2020-05-19T11:04:24Z</time>
      </trkpt>
      <trkpt lat="49.18091" lon="2.01633">
        <ele>225</ele>
        <time>2020-05-19T11:04:29Z</time>
      </trkpt>
      <trkpt lat="49.18084" lon="2.01628">
        <ele>226</ele>
        <time>2020-05-19T11:04:35Z</time>
      </trkpt>
      <trkpt lat="49.18078" lon="2.0162">
        <ele>225</ele>
        <time>2020-05-19T11:04:41Z</time>
      </trkpt>
      <trkpt lat="49.18073" lon="2.01617">
        <ele>225</ele>
        <time>2020-05-19T11:04:48Z</time>
      </trkpt>
      <trkpt lat="49.18067" lon="2.01609">
        <ele>225</ele>
        <time>2020-05-19T11:04:52Z</time>
      </trkpt>
      <trkpt lat="49.18061" lon="2.01604">
        <ele>224</ele>
        <time>2020-05-19T11:04:59Z</time>
      </trkpt>
      <trkpt lat="49.18056" lon="2.01594">
        <ele>223</ele>
        <time>2020-05-19T11:05:06Z</time>
      </trkpt>
      <trkpt lat="49.18049" lon="2.01587">
        <ele>222</ele>
        <time>2020-05-19T11:05:13Z</time>
      </trkpt>
      <trkpt lat="49.18042" lon="2.0158">
        <ele>221</ele>
        <time>2020-05-19T11:05:18Z</time>
      </trkpt>
      <trkpt lat="49.18035" lon="2.01574">
        <ele>220</ele>
        <time>2020-05-19T11:05:22Z</time>
      </trkpt>
      <trkpt lat="49.18029" lon="2.01566">
        <ele>219</ele>
        <time>2020-05-19T11:05:28Z</time>
      </trkpt>
      <trkpt lat="49.18022" lon="2.01561">
        <ele>218</ele>
        <time>2020-05-19T11:05:34Z</time>
      </trkpt>
      <trkpt lat="49.18015" lon="2.01556">
        <ele>218</ele>
        <time>2020-05-19T11:05:41Z</time>
      </trkpt>
      <trkpt lat="49.18007" lon="2.01555">
        <ele>217</ele>
        <time>2020-05-19T11:05:46Z</time>
      </trkpt>
      <trkpt lat="49.18" lon="2.01558">
        <ele>216</ele>
        <time>2020-05-19T11:05:51Z</time>
      </trkpt>
      <trkpt lat="49.17994" lon="2.01552">
        <ele>215</ele>
        <time>2020-05-19T11:05:56Z</time>
      </trkpt>
      <trkpt lat="49.17989" lon="2.01544">
        <ele>215</ele>
        <time>2020-05-19T11:06:02Z</time>
      </trkpt>
      <trkpt lat="49.17982" lon="2.0154">
        <ele>215</ele>
        <time>2020-05-19T11:06:09Z</time>
      </trkpt>
      <trkpt lat="49.17977" lon="2.0154">
        <ele>214</ele>
        <time>2020-05-19T11:06:16Z</time>
      </trkpt>
      <trkpt lat="49.1797" lon="2.01536">
        <ele>214</ele>
        <time>2020-05-19T11:06:22Z</time>
      </trkpt>
      <trkpt lat="49.17963" lon="2.01529">
        <ele>213</ele>
        <time>2020-05-19T11:06:27Z</time>
      </trkpt>
      <trkpt lat="49.17958" lon="2.01519">
        <ele>213</ele>
        <time>2020-05-19T11:06:33Z</time>
      </trkpt>
      <trkpt lat="49.17955" lon="2.0151">
        <ele>213</ele>
        <time>2020-05-19T11:06:40Z</time>
      </trkpt>
      <trkpt lat="49.17954" lon="2.01504">
        <ele>215</ele>
        <time>2020-05-19T11:06:47Z</time>
      </trkpt>
      <trkpt lat="49.17953" lon="2.01495">
        <ele>216</ele>
        <time>2020-05-19T11:06:54Z</time>
      </trkpt>
      <trkpt lat="49.17949" lon="2.01484">
        <ele>215</ele>
        <time>2020-05-19T11:07:00Z</time>
      </trkpt>
      <trkpt lat="49.17944" lon="2.01474">
        <ele>215</ele>
        <time>2020-05-19T11:07:06Z</time>
      </trkpt>
      <trkpt lat="49.17939" lon="2.01466">
        <ele>213</ele>
        <time>2020-05-19T11:07:13Z</time>
      </trkpt>
      <trkpt lat="49.17931" lon="2.01463">
        <ele>213</ele>
        <time>2020-05-19T11:07:19Z</time>
      </trkpt>
      <trkpt lat="49.17926" lon="2.01466">
        <ele>213</ele>
        <time>2020-05-19T11:07:26Z</time>
      </trkpt>
      <trkpt lat="49.1792" lon="2.01468">
        <ele>214</ele>
        <time>2020-05-19T11:07:33Z</time>
      </trkpt>
      <trkpt lat="49.17917" lon="2.01472">
        <ele>213</ele>
        <time>2020-05-19T11:07:40Z</time>
      </trkpt>
      <trkpt lat="49.17913" lon="2.01482">
        <ele>214</ele>
        <time>2020-05-19T11:07:46Z</time>
      </trkpt>
      <trkpt lat="49.17905" lon="2.01489">
        <ele>214</ele>
        <time>2020-05-19T11:07:52Z</time>
      </trkpt>
      <trkpt lat="49.179" lon="2.01497">
        <ele>216</ele>
        <time>2020-05-19T11:07:58Z</time>
      </trkpt>
      <trkpt lat="49.17893" lon="2.01501">
        <ele>219</ele>
        <time>2020-05-19T11:08:05Z</time>
      </trkpt>
      <trkpt lat="49.17888" lon="2.01509">
        <ele>219</ele>
        <time>2020-05-19T11:08:12Z</time>
      </trkpt>
      <trkpt lat="49.17881" lon="2.01509">
        <ele>218</ele>
        <time>2020-05-19T11:08:19Z</time>
      </trkpt>
      <trkpt lat="49.17878" lon="2.01508">
        <ele>218</ele>
        <time>2020-05-19T11:08:26Z</time>
      </trkpt>
      <trkpt lat="49.17878" lon="2.01508">
        <ele>219</ele>
        <time>2020-05-19T11:08:28Z</time>
      </trkpt>
      <trkpt lat="49.17877" lon="2.01504">
        <ele>218</ele>
        <time>2020-05-19T11:08:35Z</time>
      </trkpt>
      <trkpt lat="49.17877" lon="2.01501">
        <ele>217</ele>
        <time>2020-05-19T11:08:42Z</time>
      </trkpt>
      <trkpt lat="49.17874" lon="2.01495">
        <ele>220</ele>
        <time>2020-05-19T11:08:49Z</time>
      </trkpt>
      <trkpt lat="49.17871" lon="2.01487">
        <ele>222</ele>
        <time>2020-05-19T11:08:56Z</time>
      </trkpt>
      <trkpt lat="49.17868" lon="2.01483">
        <ele>223</ele>
        <time>2020-05-19T11:09:03Z</time>
      </trkpt>
      <trkpt lat="49.17869" lon="2.01477">
        <ele>222</ele>
        <time>2020-05-19T11:09:10Z</time>
      </trkpt>
      <trkpt lat="49.17864" lon="2.01466">
        <ele>222</ele>
        <time>2020-05-19T11:09:15Z</time>
      </trkpt>
      <trkpt lat="49.17862" lon="2.01454">
        <ele>221</ele>
        <time>2020-05-19T11:09:21Z</time>
      </trkpt>
      <trkpt lat="49.17857" lon="2.01444">
        <ele>220</ele>
        <time>2020-05-19T11:09:27Z</time>
      </trkpt>
      <trkpt lat="49.17856" lon="2.01434">
        <ele>220</ele>
        <time>2020-05-19T11:09:34Z</time>
      </trkpt>
      <trkpt lat="49.17854" lon="2.01422">
        <ele>219</ele>
        <time>2020-05-19T11:09:40Z</time>
      </trkpt>
      <trkpt lat="49.17851" lon="2.01411">
        <ele>217</ele>
        <time>2020-05-19T11:09:47Z</time>
      </trkpt>
      <trkpt lat="49.17847" lon="2.01403">
        <ele>216</ele>
        <time>2020-05-19T11:09:54Z</time>
      </trkpt>
      <trkpt lat="49.17843" lon="2.01393">
        <ele>216</ele>
        <time>2020-05-19T11:09:59Z</time>
      </trkpt>
      <trkpt lat="49.17838" lon="2.01384">
        <ele>217</ele>
        <time>2020-05-19T11:10:05Z</time>
      </trkpt>
      <trkpt lat="49.17833" lon="2.01373">
        <ele>218</ele>
        <time>2020-05-19T11:10:11Z</time>
      </trkpt>
      <trkpt lat="49.1783" lon="2.01362">
        <ele>218</ele>
        <time>2020-05-19T11:10:16Z</time>
      </trkpt>
      <trkpt lat="49.17827" lon="2.01352">
        <ele>219</ele>
        <time>2020-05-19T11:10:23Z</time>
      </trkpt>
      <trkpt lat="49.17824" lon="2.01341">
        <ele>219</ele>
        <time>2020-05-19T11:10:28Z</time>
      </trkpt>
      <trkpt lat="49.17821" lon="2.01333">
        <ele>219</ele>
        <time>2020-05-19T11:10:35Z</time>
      </trkpt>
      <trkpt lat="49.17818" lon="2.01321">
        <ele>219</ele>
        <time>2020-05-19T11:10:40Z</time>
      </trkpt>
      <trkpt lat="49.17816" lon="2.01309">
        <ele>219</ele>
        <time>2020-05-19T11:10:46Z</time>
      </trkpt>
      <trkpt lat="49.17814" lon="2.01298">
        <ele>221</ele>
        <time>2020-05-19T11:10:53Z</time>
      </trkpt>
      <trkpt lat="49.17811" lon="2.01288">
        <ele>223</ele>
        <time>2020-05-19T11:11:00Z</time>
      </trkpt>
      <trkpt lat="49.17808" lon="2.01277">
        <ele>223</ele>
        <time>2020-05-19T11:11:06Z</time>
      </trkpt>
      <trkpt lat="49.17804" lon="2.01268">
        <ele>223</ele>
        <time>2020-05-19T11:11:10Z</time>
      </trkpt>
      <trkpt lat="49.178" lon="2.01258">
        <ele>224</ele>
        <time>2020-05-19T11:11:14Z</time>
      </trkpt>
      <trkpt lat="49.17795" lon="2.01247">
        <ele>225</ele>
        <time>2020-05-19T11:11:20Z</time>
      </trkpt>
      <trkpt lat="49.17793" lon="2.01238">
        <ele>225</ele>
        <time>2020-05-19T11:11:27Z</time>
      </trkpt>
      <trkpt lat="49.1779" lon="2.01227">
        <ele>225</ele>
        <time>2020-05-19T11:11:32Z</time>
      </trkpt>
      <trkpt lat="49.17787" lon="2.01215">
        <ele>224</ele>
        <time>2020-05-19T11:11:39Z</time>
      </trkpt>
      <trkpt lat="49.17782" lon="2.01204">
        <ele>224</ele>
        <time>2020-05-19T11:11:46Z</time>
      </trkpt>
      <trkpt lat="49.17778" lon="2.01195">
        <ele>223</ele>
        <time>2020-05-19T11:11:51Z</time>
      </trkpt>
      <trkpt lat="49.17775" lon="2.01184">
        <ele>222</ele>
        <time>2020-05-19T11:11:57Z</time>
      </trkpt>
      <trkpt lat="49.17774" lon="2.01171">
        <ele>220</ele>
        <time>2020-05-19T11:12:03Z</time>
      </trkpt>
      <trkpt lat="49.17771" lon="2.01159">
        <ele>220</ele>
        <time>2020-05-19T11:12:07Z</time>
      </trkpt>
      <trkpt lat="49.17768" lon="2.0115">
        <ele>222</ele>
        <time>2020-05-19T11:12:14Z</time>
      </trkpt>
      <trkpt lat="49.17765" lon="2.01138">
        <ele>222</ele>
        <time>2020-05-19T11:12:20Z</time>
      </trkpt>
      <trkpt lat="49.17764" lon="2.01129">
        <ele>222</ele>
        <time>2020-05-19T11:12:27Z</time>
      </trkpt>
      <trkpt lat="49.17764" lon="2.01117">
        <ele>222</ele>
        <time>2020-05-19T11:12:34Z</time>
      </trkpt>
      <trkpt lat="49.17762" lon="2.01107">
        <ele>222</ele>
        <time>2020-05-19T11:12:41Z</time>
      </trkpt>
      <trkpt lat="49.17763" lon="2.01097">
        <ele>222</ele>
        <time>2020-05-19T11:12:48Z</time>
      </trkpt>
      <trkpt lat="49.17764" lon="2.01086">
        <ele>222</ele>
        <time>2020-05-19T11:12:54Z</time>
      </trkpt>
      <trkpt lat="49.17764" lon="2.01077">
        <ele>221</ele>
        <time>2020-05-19T11:13:01Z</time>
      </trkpt>
      <trkpt lat="49.17766" lon="2.01068">
        <ele>222</ele>
        <time>2020-05-19T11:13:08Z</time>
      </trkpt>
      <trkpt lat="49.17766" lon="2.01054">
        <ele>222</ele>
        <time>2020-05-19T11:13:14Z</time>
      </trkpt>
      <trkpt lat="49.17765" lon="2.01043">
        <ele>222</ele>
        <time>2020-05-19T11:13:21Z</time>
      </trkpt>
      <trkpt lat="49.17766" lon="2.01034">
        <ele>224</ele>
        <time>2020-05-19T11:13:28Z</time>
      </trkpt>
      <trkpt lat="49.17767" lon="2.01021">
        <ele>224</ele>
        <time>2020-05-19T11:13:34Z</time>
      </trkpt>
      <trkpt lat="49.17766" lon="2.01009">
        <ele>225</ele>
        <time>2020-05-19T11:13:39Z</time>
      </trkpt>
      <trkpt lat="49.17766" lon="2.01">
        <ele>226</ele>
        <time>2020-05-19T11:13:46Z</time>
      </trkpt>
      <trkpt lat="49.17765" lon="2.00986">
        <ele>226</ele>
        <time>2020-05-19T11:13:52Z</time>
      </trkpt>
      <trkpt lat="49.17764" lon="2.00975">
        <ele>226</ele>
        <time>2020-05-19T11:13:58Z</time>
      </trkpt>
      <trkpt lat="49.17765" lon="2.00966">
        <ele>226</ele>
        <time>2020-05-19T11:14:05Z</time>
      </trkpt>
      <trkpt lat="49.17762" lon="2.00953">
        <ele>227</ele>
        <time>2020-05-19T11:14:10Z</time>
      </trkpt>
      <trkpt lat="49.17761" lon="2.00942">
        <ele>229</ele>
        <time>2020-05-19T11:14:17Z</time>
      </trkpt>
      <trkpt lat="49.17761" lon="2.00929">
        <ele>229</ele>
        <time>2020-05-19T11:14:23Z</time>
      </trkpt>
      <trkpt lat="49.1776" lon="2.00918">
        <ele>228</ele>
        <time>2020-05-19T11:14:28Z</time>
      </trkpt>
      <trkpt lat="49.17759" lon="2.00905">
        <ele>230</ele>
        <time>2020-05-19T11:14:34Z</time>
      </trkpt>
      <trkpt lat="49.17759" lon="2.00893">
        <ele>232</ele>
        <time>2020-05-19T11:14:40Z</time>
      </trkpt>
      <trkpt lat="49.17757" lon="2.00882">
        <ele>233</ele>
        <time>2020-05-19T11:14:45Z</time>
      </trkpt>
      <trkpt lat="49.17755" lon="2.0087">
        <ele>234</ele>
        <time>2020-05-19T11:14:51Z</time>
      </trkpt>
      <trkpt lat="49.17751" lon="2.0086">
        <ele>235</ele>
        <time>2020-05-19T11:14:55Z</time>
      </trkpt>
      <trkpt lat="49.17747" lon="2.00851">
        <ele>235</ele>
        <time>2020-05-19T11:15:02Z</time>
      </trkpt>
      <trkpt lat="49.17743" lon="2.00839">
        <ele>235</ele>
        <time>2020-05-19T11:15:08Z</time>
      </trkpt>
      <trkpt lat="49.17738" lon="2.00829">
        <ele>235</ele>
        <time>2020-05-19T11:15:13Z</time>
      </trkpt>
      <trkpt lat="49.17733" lon="2.00821">
        <ele>235</ele>
        <time>2020-05-19T11:15:18Z</time>
      </trkpt>
      <trkpt lat="49.17728" lon="2.00812">
        <ele>235</ele>
        <time>2020-05-19T11:15:23Z</time>
      </trkpt>
      <trkpt lat="49.17723" lon="2.00803">
        <ele>234</ele>
        <time>2020-05-19T11:15:30Z</time>
      </trkpt>
      <trkpt lat="49.17719" lon="2.00793">
        <ele>234</ele>
        <time>2020-05-19T11:15:36Z</time>
      </trkpt>
      <trkpt lat="49.17716" lon="2.00782">
        <ele>233</ele>
        <time>2020-05-19T11:15:41Z</time>
      </trkpt>
      <trkpt lat="49.17716" lon="2.00777">
        <ele>234</ele>
        <time>2020-05-19T11:15:48Z</time>
      </trkpt>
      <trkpt lat="49.17713" lon="2.00767">
        <ele>234</ele>
        <time>2020-05-19T11:15:55Z</time>
      </trkpt>
      <trkpt lat="49.17712" lon="2.00759">
        <ele>234</ele>
        <time>2020-05-19T11:16:02Z</time>
      </trkpt>
      <trkpt lat="49.17712" lon="2.00746">
        <ele>235</ele>
        <time>2020-05-19T11:16:08Z</time>
      </trkpt>
      <trkpt lat="49.17713" lon="2.00737">
        <ele>234</ele>
        <time>2020-05-19T11:16:15Z</time>
      </trkpt>
      <trkpt lat="49.17715" lon="2.00729">
        <ele>233</ele>
        <time>2020-05-19T11:16:22Z</time>
      </trkpt>
      <trkpt lat="49.17717" lon="2.00718">
        <ele>234</ele>
        <time>2020-05-19T11:16:29Z</time>
      </trkpt>
      <trkpt lat="49.17716" lon="2.00705">
        <ele>232</ele>
        <time>2020-05-19T11:16:36Z</time>
      </trkpt>
      <trkpt lat="49.17717" lon="2.00696">
        <ele>233</ele>
        <time>2020-05-19T11:16:43Z</time>
      </trkpt>
      <trkpt lat="49.17721" lon="2.0069">
        <ele>234</ele>
        <time>2020-05-19T11:16:50Z</time>
      </trkpt>
      <trkpt lat="49.17723" lon="2.00678">
        <ele>234</ele>
        <time>2020-05-19T11:16:57Z</time>
      </trkpt>
      <trkpt lat="49.17725" lon="2.00668">
        <ele>235</ele>
        <time>2020-05-19T11:17:04Z</time>
      </trkpt>
      <trkpt lat="49.17727" lon="2.00656">
        <ele>235</ele>
        <time>2020-05-19T11:17:11Z</time>
      </trkpt>
      <trkpt lat="49.17727" lon="2.00645">
        <ele>235</ele>
        <time>2020-05-19T11:17:18Z</time>
      </trkpt>
      <trkpt lat="49.17728" lon="2.00633">
        <ele>237</ele>
        <time>2020-05-19T11:17:23Z</time>
      </trkpt>
      <trkpt lat="49.1773" lon="2.00621">
        <ele>237</ele>
        <time>2020-05-19T11:17:29Z</time>
      </trkpt>
      <trkpt lat="49.17728" lon="2.00609">
        <ele>238</ele>
        <time>2020-05-19T11:17:34Z</time>
      </trkpt>
      <trkpt lat="49.17726" lon="2.00596">
        <ele>238</ele>
        <time>2020-05-19T11:17:39Z</time>
      </trkpt>
      <trkpt lat="49.17728" lon="2.00585">
        <ele>239</ele>
        <time>2020-05-19T11:17:45Z</time>
      </trkpt>
      <trkpt lat="49.1773" lon="2.00582">
        <ele>238</ele>
        <time>2020-05-19T11:17:52Z</time>
      </trkpt>
      <trkpt lat="49.17725" lon="2.00583">
        <ele>236</ele>
        <time>2020-05-19T11:17:59Z</time>
      </trkpt>
      <trkpt lat="49.17726" lon="2.00588">
        <ele>236</ele>
        <time>2020-05-19T11:18:06Z</time>
      </trkpt>
      <trkpt lat="49.1773" lon="2.0059">
        <ele>236</ele>
        <time>2020-05-19T11:18:13Z</time>
      </trkpt>
      <trkpt lat="49.17738" lon="2.00593">
        <ele>236</ele>
        <time>2020-05-19T11:18:20Z</time>
      </trkpt>
      <trkpt lat="49.17744" lon="2.00595">
        <ele>235</ele>
        <time>2020-05-19T11:18:27Z</time>
      </trkpt>
      <trkpt lat="49.1775" lon="2.00598">
        <ele>235</ele>
        <time>2020-05-19T11:18:34Z</time>
      </trkpt>
      <trkpt lat="49.17754" lon="2.006">
        <ele>236</ele>
        <time>2020-05-19T11:18:41Z</time>
      </trkpt>
      <trkpt lat="49.17759" lon="2.00605">
        <ele>235</ele>
        <time>2020-05-19T11:18:48Z</time>
      </trkpt>
      <trkpt lat="49.17766" lon="2.00611">
        <ele>235</ele>
        <time>2020-05-19T11:18:55Z</time>
      </trkpt>
      <trkpt lat="49.17772" lon="2.00613">
        <ele>235</ele>
        <time>2020-05-19T11:19:02Z</time>
      </trkpt>
      <trkpt lat="49.17775" lon="2.00619">
        <ele>233</ele>
        <time>2020-05-19T11:19:09Z</time>
      </trkpt>
      <trkpt lat="49.1778" lon="2.00626">
        <ele>232</ele>
        <time>2020-05-19T11:19:16Z</time>
      </trkpt>
      <trkpt lat="49.17786" lon="2.00632">
        <ele>232</ele>
        <time>2020-05-19T11:19:23Z</time>
      </trkpt>
      <trkpt lat="49.17791" lon="2.00639">
        <ele>231</ele>
        <time>2020-05-19T11:19:30Z</time>
      </trkpt>
      <trkpt lat="49.17797" lon="2.00647">
        <ele>231</ele>
        <time>2020-05-19T11:19:36Z</time>
      </trkpt>
      <trkpt lat="49.178" lon="2.00657">
        <ele>230</ele>
        <time>2020-05-19T11:19:42Z</time>
      </trkpt>
      <trkpt lat="49.17805" lon="2.00666">
        <ele>234</ele>
        <time>2020-05-19T11:19:48Z</time>
      </trkpt>
      <trkpt lat="49.1781" lon="2.00676">
        <ele>232</ele>
        <time>2020-05-19T11:19:55Z</time>
      </trkpt>
      <trkpt lat="49.17816" lon="2.00685">
        <ele>232</ele>
        <time>2020-05-19T11:20:00Z</time>
      </trkpt>
      <trkpt lat="49.17821" lon="2.00695">
        <ele>233</ele>
        <time>2020-05-19T11:20:06Z</time>
      </trkpt>
      <trkpt lat="49.17826" lon="2.00706">
        <ele>233</ele>
        <time>2020-05-19T11:20:13Z</time>
      </trkpt>
      <trkpt lat="49.17829" lon="2.00714">
        <ele>234</ele>
        <time>2020-05-19T11:20:20Z</time>
      </trkpt>
      <trkpt lat="49.1783" lon="2.00723">
        <ele>235</ele>
        <time>2020-05-19T11:20:27Z</time>
      </trkpt>
      <trkpt lat="49.17833" lon="2.00731">
        <ele>236</ele>
        <time>2020-05-19T11:20:34Z</time>
      </trkpt>
      <trkpt lat="49.17835" lon="2.00739">
        <ele>236</ele>
        <time>2020-05-19T11:20:41Z</time>
      </trkpt>
      <trkpt lat="49.17835" lon="2.00745">
        <ele>236</ele>
        <time>2020-05-19T11:20:48Z</time>
      </trkpt>
      <trkpt lat="49.17838" lon="2.00756">
        <ele>235</ele>
        <time>2020-05-19T11:20:55Z</time>
      </trkpt>
      <trkpt lat="49.17842" lon="2.00766">
        <ele>235</ele>
        <time>2020-05-19T11:21:00Z</time>
      </trkpt>
      <trkpt lat="49.17844" lon="2.00778">
        <ele>235</ele>
        <time>2020-05-19T11:21:07Z</time>
      </trkpt>
      <trkpt lat="49.17847" lon="2.0079">
        <ele>237</ele>
        <time>2020-05-19T11:21:13Z</time>
      </trkpt>
      <trkpt lat="49.17849" lon="2.00798">
        <ele>236</ele>
        <time>2020-05-19T11:21:20Z</time>
      </trkpt>
      <trkpt lat="49.17851" lon="2.00807">
        <ele>235</ele>
        <time>2020-05-19T11:21:27Z</time>
      </trkpt>
      <trkpt lat="49.17854" lon="2.00818">
        <ele>235</ele>
        <time>2020-05-19T11:21:33Z</time>
      </trkpt>
      <trkpt lat="49.17855" lon="2.00827">
        <ele>234</ele>
        <time>2020-05-19T11:21:40Z</time>
      </trkpt>
      <trkpt lat="49.17857" lon="2.00837">
        <ele>232</ele>
        <time>2020-05-19T11:21:47Z</time>
      </trkpt>
      <trkpt lat="49.17862" lon="2.00847">
        <ele>231</ele>
        <time>2020-05-19T11:21:54Z</time>
      </trkpt>
      <trkpt lat="49.17864" lon="2.00858">
        <ele>230</ele>
        <time>2020-05-19T11:22:00Z</time>
      </trkpt>
      <trkpt lat="49.17868" lon="2.00867">
        <ele>229</ele>
        <time>2020-05-19T11:22:05Z</time>
      </trkpt>
      <trkpt lat="49.17871" lon="2.0088">
        <ele>229</ele>
        <time>2020-05-19T11:22:12Z</time>
      </trkpt>
      <trkpt lat="49.17873" lon="2.00891">
        <ele>229</ele>
        <time>2020-05-19T11:22:19Z</time>
      </trkpt>
      <trkpt lat="49.17877" lon="2.00902">
        <ele>228</ele>
        <time>2020-05-19T11:22:24Z</time>
      </trkpt>
      <trkpt lat="49.1788" lon="2.00913">
        <ele>227</ele>
        <time>2020-05-19T11:22:31Z</time>
      </trkpt>
      <trkpt lat="49.17882" lon="2.00923">
        <ele>226</ele>
        <time>2020-05-19T11:22:37Z</time>
      </trkpt>
      <trkpt lat="49.17887" lon="2.00934">
        <ele>226</ele>
        <time>2020-05-19T11:22:44Z</time>
      </trkpt>
      <trkpt lat="49.17885" lon="2.00944">
        <ele>225</ele>
        <time>2020-05-19T11:22:51Z</time>
      </trkpt>
      <trkpt lat="49.17888" lon="2.00955">
        <ele>225</ele>
        <time>2020-05-19T11:22:57Z</time>
      </trkpt>
      <trkpt lat="49.17894" lon="2.00962">
        <ele>224</ele>
        <time>2020-05-19T11:23:04Z</time>
      </trkpt>
      <trkpt lat="49.17899" lon="2.00972">
        <ele>224</ele>
        <time>2020-05-19T11:23:09Z</time>
      </trkpt>
      <trkpt lat="49.17904" lon="2.00981">
        <ele>223</ele>
        <time>2020-05-19T11:23:15Z</time>
      </trkpt>
      <trkpt lat="49.17905" lon="2.00989">
        <ele>223</ele>
        <time>2020-05-19T11:23:22Z</time>
      </trkpt>
      <trkpt lat="49.17908" lon="2.00999">
        <ele>222</ele>
        <time>2020-05-19T11:23:29Z</time>
      </trkpt>
      <trkpt lat="49.1791" lon="2.01009">
        <ele>223</ele>
        <time>2020-05-19T11:23:36Z</time>
      </trkpt>
      <trkpt lat="49.17915" lon="2.01017">
        <ele>222</ele>
        <time>2020-05-19T11:23:42Z</time>
      </trkpt>
      <trkpt lat="49.17919" lon="2.01029">
        <ele>222</ele>
        <time>2020-05-19T11:23:48Z</time>
      </trkpt>
      <trkpt lat="49.17923" lon="2.0104">
        <ele>222</ele>
        <time>2020-05-19T11:23:53Z</time>
      </trkpt>
      <trkpt lat="49.17925" lon="2.01048">
        <ele>222</ele>
        <time>2020-05-19T11:24:00Z</time>
      </trkpt>
      <trkpt lat="49.1793" lon="2.01057">
        <ele>222</ele>
        <time>2020-05-19T11:24:07Z</time>
      </trkpt>
      <trkpt lat="49.1793" lon="2.01065">
        <ele>222</ele>
        <time>2020-05-19T11:24:14Z</time>
      </trkpt>
      <trkpt lat="49.17932" lon="2.01073">
        <ele>222</ele>
        <time>2020-05-19T11:24:21Z</time>
      </trkpt>
      <trkpt lat="49.17935" lon="2.01083">
        <ele>223</ele>
        <time>2020-05-19T11:24:28Z</time>
      </trkpt>
      <trkpt lat="49.17939" lon="2.01094">
        <ele>223</ele>
        <time>2020-05-19T11:24:33Z</time>
      </trkpt>
      <trkpt lat="49.17938" lon="2.01099">
        <ele>222</ele>
        <time>2020-05-19T11:24:40Z</time>
      </trkpt>
      <trkpt lat="49.17938" lon="2.01107">
        <ele>222</ele>
        <time>2020-05-19T11:24:47Z</time>
      </trkpt>
      <trkpt lat="49.1794" lon="2.01119">
        <ele>221</ele>
        <time>2020-05-19T11:24:54Z</time>
      </trkpt>
      <trkpt lat="49.17944" lon="2.01127">
        <ele>220</ele>
        <time>2020-05-19T11:25:01Z</time>
      </trkpt>
      <trkpt lat="49.17948" lon="2.01136">
        <ele>219</ele>
        <time>2020-05-19T11:25:08Z</time>
      </trkpt>
      <trkpt lat="49.17949" lon="2.01146">
        <ele>218</ele>
        <time>2020-05-19T11:25:15Z</time>
      </trkpt>
      <trkpt lat="49.1795" lon="2.01158">
        <ele>217</ele>
        <time>2020-05-19T11:25:22Z</time>
      </trkpt>
      <trkpt lat="49.17955" lon="2.01168">
        <ele>217</ele>
        <time>2020-05-19T11:25:27Z</time>
      </trkpt>
      <trkpt lat="49.1796" lon="2.01178">
        <ele>218</ele>
        <time>2020-05-19T11:25:34Z</time>
      </trkpt>
      <trkpt lat="49.17962" lon="2.01189">
        <ele>218</ele>
        <time>2020-05-19T11:25:39Z</time>
      </trkpt>
      <trkpt lat="49.17964" lon="2.01199">
        <ele>218</ele>
        <time>2020-05-19T11:25:46Z</time>
      </trkpt>
      <trkpt lat="49.17968" lon="2.01209">
        <ele>218</ele>
        <time>2020-05-19T11:25:51Z</time>
      </trkpt>
      <trkpt lat="49.17969" lon="2.01221">
        <ele>219</ele>
        <time>2020-05-19T11:25:58Z</time>
      </trkpt>
      <trkpt lat="49.17973" lon="2.01231">
        <ele>218</ele>
        <time>2020-05-19T11:26:05Z</time>
      </trkpt>
      <trkpt lat="49.17977" lon="2.01242">
        <ele>218</ele>
        <time>2020-05-19T11:26:12Z</time>
      </trkpt>
      <trkpt lat="49.1798" lon="2.01249">
        <ele>219</ele>
        <time>2020-05-19T11:26:19Z</time>
      </trkpt>
      <trkpt lat="49.17982" lon="2.01254">
        <ele>219</ele>
        <time>2020-05-19T11:26:26Z</time>
      </trkpt>
      <trkpt lat="49.1798" lon="2.01265">
        <ele>218</ele>
        <time>2020-05-19T11:26:33Z</time>
      </trkpt>
      <trkpt lat="49.17979" lon="2.01277">
        <ele>218</ele>
        <time>2020-05-19T11:26:40Z</time>
      </trkpt>
      <trkpt lat="49.17978" lon="2.01285">
        <ele>218</ele>
        <time>2020-05-19T11:26:47Z</time>
      </trkpt>
      <trkpt lat="49.17978" lon="2.01297">
        <ele>221</ele>
        <time>2020-05-19T11:26:52Z</time>
      </trkpt>
      <trkpt lat="49.17978" lon="2.01297">
        <ele>221</ele>
        <time>2020-05-19T11:26:59Z</time>
      </trkpt>
      <trkpt lat="49.17983" lon="2.01305">
        <ele>223</ele>
        <time>2020-05-19T11:27:23Z</time>
      </trkpt>
      <trkpt lat="49.17987" lon="2.01313">
        <ele>225</ele>
        <time>2020-05-19T11:27:30Z</time>
      </trkpt>
      <trkpt lat="49.17992" lon="2.01319">
        <ele>227</ele>
        <time>2020-05-19T11:27:37Z</time>
      </trkpt>
      <trkpt lat="49.17998" lon="2.01326">
        <ele>227</ele>
        <time>2020-05-19T11:27:43Z</time>
      </trkpt>
      <trkpt lat="49.18003" lon="2.01334">
        <ele>225</ele>
        <time>2020-05-19T11:27:50Z</time>
      </trkpt>
      <trkpt lat="49.18008" lon="2.01341">
        <ele>226</ele>
        <time>2020-05-19T11:27:56Z</time>
      </trkpt>
      <trkpt lat="49.18014" lon="2.01348">
        <ele>225</ele>
        <time>2020-05-19T11:28:01Z</time>
      </trkpt>
      <trkpt lat="49.1802" lon="2.01356">
        <ele>225</ele>
        <time>2020-05-19T11:28:07Z</time>
      </trkpt>
      <trkpt lat="49.18026" lon="2.01362">
        <ele>224</ele>
        <time>2020-05-19T11:28:14Z</time>
      </trkpt>
      <trkpt lat="49.18032" lon="2.01368">
        <ele>225</ele>
        <time>2020-05-19T11:28:21Z</time>
      </trkpt>
      <trkpt lat="49.18036" lon="2.01375">
        <ele>226</ele>
        <time>2020-05-19T11:28:28Z</time>
      </trkpt>
      <trkpt lat="49.18041" lon="2.01384">
        <ele>225</ele>
        <time>2020-05-19T11:28:33Z</time>
      </trkpt>
      <trkpt lat="49.18045" lon="2.01394">
        <ele>226</ele>
        <time>2020-05-19T11:28:40Z</time>
      </trkpt>
      <trkpt lat="49.18051" lon="2.01402">
        <ele>224</ele>
        <time>2020-05-19T11:28:46Z</time>
      </trkpt>
      <trkpt lat="49.18055" lon="2.01411">
        <ele>225</ele>
        <time>2020-05-19T11:28:53Z</time>
      </trkpt>
      <trkpt lat="49.18061" lon="2.01419">
        <ele>224</ele>
        <time>2020-05-19T11:28:59Z</time>
      </trkpt>
      <trkpt lat="49.18066" lon="2.01427">
        <ele>223</ele>
        <time>2020-05-19T11:29:04Z</time>
      </trkpt>
      <trkpt lat="49.1807" lon="2.01436">
        <ele>223</ele>
        <time>2020-05-19T11:29:09Z</time>
      </trkpt>
      <trkpt lat="49.18077" lon="2.01444">
        <ele>222</ele>
        <time>2020-05-19T11:29:15Z</time>
      </trkpt>
      <trkpt lat="49.18083" lon="2.01451">
        <ele>223</ele>
        <time>2020-05-19T11:29:21Z</time>
      </trkpt>
      <trkpt lat="49.18088" lon="2.0146">
        <ele>224</ele>
        <time>2020-05-19T11:29:27Z</time>
      </trkpt>
      <trkpt lat="49.18095" lon="2.01466">
        <ele>224</ele>
        <time>2020-05-19T11:29:34Z</time>
      </trkpt>
      <trkpt lat="49.18101" lon="2.01473">
        <ele>223</ele>
        <time>2020-05-19T11:29:40Z</time>
      </trkpt>
      <trkpt lat="49.18108" lon="2.01482">
        <ele>223</ele>
        <time>2020-05-19T11:29:46Z</time>
      </trkpt>
      <trkpt lat="49.18113" lon="2.0149">
        <ele>224</ele>
        <time>2020-05-19T11:29:52Z</time>
      </trkpt>
      <trkpt lat="49.18119" lon="2.01497">
        <ele>225</ele>
        <time>2020-05-19T11:29:58Z</time>
      </trkpt>
      <trkpt lat="49.18125" lon="2.01503">
        <ele>226</ele>
        <time>2020-05-19T11:30:03Z</time>
      </trkpt>
      <trkpt lat="49.1813" lon="2.01511">
        <ele>225</ele>
        <time>2020-05-19T11:30:09Z</time>
      </trkpt>
      <trkpt lat="49.18137" lon="2.01518">
        <ele>225</ele>
        <time>2020-05-19T11:30:14Z</time>
      </trkpt>
      <trkpt lat="49.18143" lon="2.01525">
        <ele>225</ele>
        <time>2020-05-19T11:30:20Z</time>
      </trkpt>
      <trkpt lat="49.1815" lon="2.0153">
        <ele>224</ele>
        <time>2020-05-19T11:30:27Z</time>
      </trkpt>
      <trkpt lat="49.18155" lon="2.0154">
        <ele>222</ele>
        <time>2020-05-19T11:30:33Z</time>
      </trkpt>
      <trkpt lat="49.1816" lon="2.01548">
        <ele>223</ele>
        <time>2020-05-19T11:30:38Z</time>
      </trkpt>
      <trkpt lat="49.18167" lon="2.01555">
        <ele>224</ele>
        <time>2020-05-19T11:30:44Z</time>
      </trkpt>
      <trkpt lat="49.18172" lon="2.01563">
        <ele>224</ele>
        <time>2020-05-19T11:30:51Z</time>
      </trkpt>
      <trkpt lat="49.18179" lon="2.0157">
        <ele>223</ele>
        <time>2020-05-19T11:30:57Z</time>
      </trkpt>
      <trkpt lat="49.18185" lon="2.01577">
        <ele>223</ele>
        <time>2020-05-19T11:31:03Z</time>
      </trkpt>
      <trkpt lat="49.18191" lon="2.01586">
        <ele>221</ele>
        <time>2020-05-19T11:31:10Z</time>
      </trkpt>
      <trkpt lat="49.18197" lon="2.01594">
        <ele>221</ele>
        <time>2020-05-19T11:31:15Z</time>
      </trkpt>
      <trkpt lat="49.18201" lon="2.01604">
        <ele>222</ele>
        <time>2020-05-19T11:31:21Z</time>
      </trkpt>
      <trkpt lat="49.18207" lon="2.01607">
        <ele>222</ele>
        <time>2020-05-19T11:31:28Z</time>
      </trkpt>
      <trkpt lat="49.18214" lon="2.01612">
        <ele>221</ele>
        <time>2020-05-19T11:31:33Z</time>
      </trkpt>
      <trkpt lat="49.18217" lon="2.01618">
        <ele>220</ele>
        <time>2020-05-19T11:31:40Z</time>
      </trkpt>
      <trkpt lat="49.18223" lon="2.01625">
        <ele>221</ele>
        <time>2020-05-19T11:31:46Z</time>
      </trkpt>
      <trkpt lat="49.18229" lon="2.01632">
        <ele>222</ele>
        <time>2020-05-19T11:31:51Z</time>
      </trkpt>
      <trkpt lat="49.18236" lon="2.0164">
        <ele>222</ele>
        <time>2020-05-19T11:31:58Z</time>
      </trkpt>
      <trkpt lat="49.18241" lon="2.01649">
        <ele>222</ele>
        <time>2020-05-19T11:32:04Z</time>
      </trkpt>
      <trkpt lat="49.18248" lon="2.01653">
        <ele>221</ele>
        <time>2020-05-19T11:32:10Z</time>
      </trkpt>
      <trkpt lat="49.18255" lon="2.01659">
        <ele>221</ele>
        <time>2020-05-19T11:32:16Z</time>
      </trkpt>
      <trkpt lat="49.18261" lon="2.01665">
        <ele>220</ele>
        <time>2020-05-19T11:32:23Z</time>
      </trkpt>
      <trkpt lat="49.18267" lon="2.01673">
        <ele>219</ele>
        <time>2020-05-19T11:32:29Z</time>
      </trkpt>
      <trkpt lat="49.18274" lon="2.01678">
        <ele>219</ele>
        <time>2020-05-19T11:32:35Z</time>
      </trkpt>
      <trkpt lat="49.1828" lon="2.01686">
        <ele>219</ele>
        <time>2020-05-19T11:32:42Z</time>
      </trkpt>
      <trkpt lat="49.18287" lon="2.01693">
        <ele>219</ele>
        <time>2020-05-19T11:32:48Z</time>
      </trkpt>
      <trkpt lat="49.18293" lon="2.017">
        <ele>219</ele>
        <time>2020-05-19T11:32:52Z</time>
      </trkpt>
      <trkpt lat="49.18297" lon="2.01706">
        <ele>220</ele>
        <time>2020-05-19T11:32:59Z</time>
      </trkpt>
      <trkpt lat="49.18301" lon="2.01717">
        <ele>219</ele>
        <time>2020-05-19T11:33:06Z</time>
      </trkpt>
      <trkpt lat="49.18304" lon="2.01727">
        <ele>219</ele>
        <time>2020-05-19T11:33:11Z</time>
      </trkpt>
      <trkpt lat="49.18307" lon="2.01739">
        <ele>219</ele>
        <time>2020-05-19T11:33:16Z</time>
      </trkpt>
      <trkpt lat="49.18309" lon="2.0175">
        <ele>219</ele>
        <time>2020-05-19T11:33:23Z</time>
      </trkpt>
      <trkpt lat="49.18311" lon="2.01761">
        <ele>219</ele>
        <time>2020-05-19T11:33:28Z</time>
      </trkpt>
      <trkpt lat="49.18314" lon="2.01773">
        <ele>219</ele>
        <time>2020-05-19T11:33:32Z</time>
      </trkpt>
      <trkpt lat="49.18317" lon="2.01783">
        <ele>219</ele>
        <time>2020-05-19T11:33:36Z</time>
      </trkpt>
      <trkpt lat="49.18321" lon="2.01793">
        <ele>220</ele>
        <time>2020-05-19T11:33:42Z</time>
      </trkpt>
      <trkpt lat="49.18324" lon="2.01804">
        <ele>221</ele>
        <time>2020-05-19T11:33:49Z</time>
      </trkpt>
      <trkpt lat="49.18329" lon="2.01813">
        <ele>221</ele>
        <time>2020-05-19T11:33:53Z</time>
      </trkpt>
      <trkpt lat="49.18334" lon="2.01823">
        <ele>221</ele>
        <time>2020-05-19T11:33:59Z</time>
      </trkpt>
      <trkpt lat="49.18339" lon="2.01833">
        <ele>221</ele>
        <time>2020-05-19T11:34:05Z</time>
      </trkpt>
      <trkpt lat="49.18344" lon="2.01844">
        <ele>221</ele>
        <time>2020-05-19T11:34:12Z</time>
      </trkpt>
      <trkpt lat="49.18349" lon="2.01855">
        <ele>220</ele>
        <time>2020-05-19T11:34:18Z</time>
      </trkpt>
      <trkpt lat="49.18353" lon="2.01865">
        <ele>221</ele>
        <time>2020-05-19T11:34:23Z</time>
      </trkpt>
      <trkpt lat="49.18357" lon="2.01876">
        <ele>222</ele>
        <time>2020-05-19T11:34:30Z</time>
      </trkpt>
      <trkpt lat="49.18359" lon="2.01885">
        <ele>221</ele>
        <time>2020-05-19T11:34:37Z</time>
      </trkpt>
      <trkpt lat="49.18365" lon="2.01894">
        <ele>220</ele>
        <time>2020-05-19T11:34:44Z</time>
      </trkpt>
      <trkpt lat="49.1837" lon="2.01903">
        <ele>220</ele>
        <time>2020-05-19T11:34:51Z</time>
      </trkpt>
      <trkpt lat="49.18375" lon="2.01911">
        <ele>220</ele>
        <time>2020-05-19T11:34:57Z</time>
      </trkpt>
      <trkpt lat="49.18378" lon="2.01922">
        <ele>221</ele>
        <time>2020-05-19T11:35:03Z</time>
      </trkpt>
      <trkpt lat="49.18383" lon="2.01929">
        <ele>223</ele>
        <time>2020-05-19T11:35:10Z</time>
      </trkpt>
      <trkpt lat="49.18387" lon="2.0194">
        <ele>223</ele>
        <time>2020-05-19T11:35:17Z</time>
      </trkpt>
      <trkpt lat="49.18391" lon="2.0195">
        <ele>221</ele>
        <time>2020-05-19T11:35:23Z</time>
      </trkpt>
      <trkpt lat="49.18398" lon="2.01958">
        <ele>221</ele>
        <time>2020-05-19T11:35:30Z</time>
      </trkpt>
      <trkpt lat="49.18405" lon="2.01964">
        <ele>222</ele>
        <time>2020-05-19T11:35:35Z</time>
      </trkpt>
      <trkpt lat="49.1841" lon="2.01971">
        <ele>222</ele>
        <time>2020-05-19T11:35:41Z</time>
      </trkpt>
      <trkpt lat="49.18416" lon="2.01978">
        <ele>222</ele>
        <time>2020-05-19T11:35:48Z</time>
      </trkpt>
      <trkpt lat="49.18422" lon="2.01985">
        <ele>223</ele>
        <time>2020-05-19T11:35:53Z</time>
      </trkpt>
      <trkpt lat="49.18428" lon="2.01994">
        <ele>223</ele>
        <time>2020-05-19T11:36:00Z</time>
      </trkpt>
      <trkpt lat="49.18434" lon="2.02001">
        <ele>222</ele>
        <time>2020-05-19T11:36:06Z</time>
      </trkpt>
      <trkpt lat="49.1844" lon="2.02003">
        <ele>222</ele>
        <time>2020-05-19T11:36:13Z</time>
      </trkpt>
      <trkpt lat="49.18443" lon="2.02009">
        <ele>222</ele>
        <time>2020-05-19T11:36:20Z</time>
      </trkpt>
      <trkpt lat="49.18442" lon="2.02009">
        <ele>224</ele>
        <time>2020-05-19T11:36:27Z</time>
      </trkpt>
      <trkpt lat="49.18445" lon="2.02016">
        <ele>222</ele>
        <time>2020-05-19T11:36:34Z</time>
      </trkpt>
      <trkpt lat="49.18447" lon="2.02026">
        <ele>223</ele>
        <time>2020-05-19T11:36:40Z</time>
      </trkpt>
      <trkpt lat="49.18446" lon="2.02034">
        <ele>227</ele>
        <time>2020-05-19T11:36:47Z</time>
      </trkpt>
      <trkpt lat="49.18446" lon="2.02034">
        <ele>227</ele>
        <time>2020-05-19T11:36:53Z</time>
      </trkpt>
      <trkpt lat="49.18446" lon="2.02058">
        <ele>245</ele>
        <time>2020-05-19T11:45:23Z</time>
      </trkpt>
      <trkpt lat="49.18452" lon="2.02066">
        <ele>247</ele>
        <time>2020-05-19T11:45:30Z</time>
      </trkpt>
      <trkpt lat="49.18459" lon="2.0207">
        <ele>247</ele>
        <time>2020-05-19T11:45:37Z</time>
      </trkpt>
      <trkpt lat="49.18465" lon="2.02073">
        <ele>248</ele>
        <time>2020-05-19T11:45:44Z</time>
      </trkpt>
      <trkpt lat="49.18471" lon="2.02078">
        <ele>249</ele>
        <time>2020-05-19T11:45:51Z</time>
      </trkpt>
      <trkpt lat="49.18478" lon="2.02082">
        <ele>248</ele>
        <time>2020-05-19T11:45:58Z</time>
      </trkpt>
      <trkpt lat="49.18486" lon="2.02083">
        <ele>249</ele>
        <time>2020-05-19T11:46:04Z</time>
      </trkpt>
      <trkpt lat="49.18492" lon="2.02083">
        <ele>249</ele>
        <time>2020-05-19T11:46:11Z</time>
      </trkpt>
      <trkpt lat="49.18499" lon="2.02079">
        <ele>250</ele>
        <time>2020-05-19T11:46:17Z</time>
      </trkpt>
      <trkpt lat="49.18505" lon="2.02079">
        <ele>251</ele>
        <time>2020-05-19T11:46:24Z</time>
      </trkpt>
      <trkpt lat="49.18509" lon="2.0208">
        <ele>252</ele>
        <time>2020-05-19T11:46:31Z</time>
      </trkpt>
      <trkpt lat="49.18513" lon="2.02078">
        <ele>252</ele>
        <time>2020-05-19T11:46:38Z</time>
      </trkpt>
      <trkpt lat="49.18516" lon="2.02071">
        <ele>251</ele>
        <time>2020-05-19T11:46:45Z</time>
      </trkpt>
      <trkpt lat="49.18519" lon="2.02063">
        <ele>249</ele>
        <time>2020-05-19T11:46:52Z</time>
      </trkpt>
      <trkpt lat="49.18523" lon="2.02053">
        <ele>247</ele>
        <time>2020-05-19T11:46:59Z</time>
      </trkpt>
      <trkpt lat="49.18529" lon="2.02046">
        <ele>245</ele>
        <time>2020-05-19T11:47:06Z</time>
      </trkpt>
      <trkpt lat="49.18533" lon="2.02038">
        <ele>246</ele>
        <time>2020-05-19T11:47:13Z</time>
      </trkpt>
      <trkpt lat="49.1854" lon="2.02032">
        <ele>247</ele>
        <time>2020-05-19T11:47:20Z</time>
      </trkpt>
      <trkpt lat="49.18545" lon="2.02024">
        <ele>247</ele>
        <time>2020-05-19T11:47:27Z</time>
      </trkpt>
      <trkpt lat="49.1855" lon="2.02019">
        <ele>247</ele>
        <time>2020-05-19T11:47:34Z</time>
      </trkpt>
      <trkpt lat="49.18556" lon="2.02015">
        <ele>245</ele>
        <time>2020-05-19T11:47:41Z</time>
      </trkpt>
      <trkpt lat="49.18562" lon="2.02005">
        <ele>245</ele>
        <time>2020-05-19T11:47:48Z</time>
      </trkpt>
      <trkpt lat="49.18566" lon="2.01997">
        <ele>243</ele>
        <time>2020-05-19T11:47:55Z</time>
      </trkpt>
      <trkpt lat="49.1857" lon="2.0199">
        <ele>243</ele>
        <time>2020-05-19T11:48:02Z</time>
      </trkpt>
      <trkpt lat="49.18575" lon="2.01983">
        <ele>242</ele>
        <time>2020-05-19T11:48:09Z</time>
      </trkpt>
      <trkpt lat="49.18577" lon="2.01976">
        <ele>241</ele>
        <time>2020-05-19T11:48:16Z</time>
      </trkpt>
      <trkpt lat="49.1858" lon="2.01978">
        <ele>242</ele>
        <time>2020-05-19T11:48:23Z</time>
      </trkpt>
      <trkpt lat="49.18585" lon="2.01979">
        <ele>242</ele>
        <time>2020-05-19T11:48:30Z</time>
      </trkpt>
      <trkpt lat="49.18582" lon="2.01978">
        <ele>240</ele>
        <time>2020-05-19T11:48:37Z</time>
      </trkpt>
      <trkpt lat="49.18579" lon="2.01986">
        <ele>239</ele>
        <time>2020-05-19T11:48:44Z</time>
      </trkpt>
      <trkpt lat="49.18574" lon="2.01993">
        <ele>241</ele>
        <time>2020-05-19T11:48:51Z</time>
      </trkpt>
      <trkpt lat="49.18569" lon="2.01999">
        <ele>244</ele>
        <time>2020-05-19T11:48:58Z</time>
      </trkpt>
      <trkpt lat="49.18566" lon="2.02004">
        <ele>245</ele>
        <time>2020-05-19T11:49:05Z</time>
      </trkpt>
      <trkpt lat="49.18561" lon="2.02012">
        <ele>244</ele>
        <time>2020-05-19T11:49:11Z</time>
      </trkpt>
      <trkpt lat="49.18554" lon="2.02018">
        <ele>243</ele>
        <time>2020-05-19T11:49:17Z</time>
      </trkpt>
      <trkpt lat="49.18554" lon="2.0202">
        <ele>244</ele>
        <time>2020-05-19T11:49:24Z</time>
      </trkpt>
      <trkpt lat="49.18549" lon="2.02021">
        <ele>245</ele>
        <time>2020-05-19T11:49:31Z</time>
      </trkpt>
      <trkpt lat="49.18542" lon="2.02027">
        <ele>244</ele>
        <time>2020-05-19T11:49:37Z</time>
      </trkpt>
      <trkpt lat="49.18536" lon="2.02035">
        <ele>240</ele>
        <time>2020-05-19T11:49:42Z</time>
      </trkpt>
      <trkpt lat="49.18533" lon="2.02042">
        <ele>239</ele>
        <time>2020-05-19T11:49:49Z</time>
      </trkpt>
      <trkpt lat="49.18529" lon="2.02049">
        <ele>238</ele>
        <time>2020-05-19T11:49:56Z</time>
      </trkpt>
      <trkpt lat="49.18524" lon="2.02059">
        <ele>237</ele>
        <time>2020-05-19T11:50:03Z</time>
      </trkpt>
      <trkpt lat="49.18524" lon="2.02072">
        <ele>239</ele>
        <time>2020-05-19T11:50:09Z</time>
      </trkpt>
      <trkpt lat="49.18524" lon="2.02083">
        <ele>240</ele>
        <time>2020-05-19T11:50:14Z</time>
      </trkpt>
      <trkpt lat="49.18523" lon="2.02094">
        <ele>240</ele>
        <time>2020-05-19T11:50:21Z</time>
      </trkpt>
      <trkpt lat="49.1852" lon="2.02103">
        <ele>241</ele>
        <time>2020-05-19T11:50:28Z</time>
      </trkpt>
      <trkpt lat="49.18518" lon="2.02114">
        <ele>242</ele>
        <time>2020-05-19T11:50:35Z</time>
      </trkpt>
      <trkpt lat="49.18516" lon="2.02125">
        <ele>242</ele>
        <time>2020-05-19T11:50:42Z</time>
      </trkpt>
      <trkpt lat="49.18516" lon="2.02135">
        <ele>242</ele>
        <time>2020-05-19T11:50:49Z</time>
      </trkpt>
      <trkpt lat="49.18515" lon="2.02146">
        <ele>241</ele>
        <time>2020-05-19T11:50:56Z</time>
      </trkpt>
      <trkpt lat="49.18514" lon="2.02157">
        <ele>243</ele>
        <time>2020-05-19T11:51:00Z</time>
      </trkpt>
      <trkpt lat="49.18512" lon="2.02165">
        <ele>242</ele>
        <time>2020-05-19T11:51:07Z</time>
      </trkpt>
      <trkpt lat="49.18511" lon="2.02169">
        <ele>243</ele>
        <time>2020-05-19T11:51:14Z</time>
      </trkpt>
      <trkpt lat="49.18513" lon="2.02172">
        <ele>241</ele>
        <time>2020-05-19T11:51:21Z</time>
      </trkpt>
      <trkpt lat="49.18514" lon="2.02179">
        <ele>241</ele>
        <time>2020-05-19T11:51:28Z</time>
      </trkpt>
      <trkpt lat="49.18521" lon="2.02179">
        <ele>246</ele>
        <time>2020-05-19T11:51:35Z</time>
      </trkpt>
      <trkpt lat="49.18523" lon="2.02177">
        <ele>246</ele>
        <time>2020-05-19T11:51:42Z</time>
      </trkpt>
      <trkpt lat="49.18523" lon="2.02179">
        <ele>249</ele>
        <time>2020-05-19T11:51:49Z</time>
      </trkpt>
      <trkpt lat="49.18529" lon="2.02183">
        <ele>249</ele>
        <time>2020-05-19T11:51:56Z</time>
      </trkpt>
      <trkpt lat="49.18536" lon="2.02189">
        <ele>250</ele>
        <time>2020-05-19T11:52:03Z</time>
      </trkpt>
      <trkpt lat="49.18544" lon="2.02191">
        <ele>250</ele>
        <time>2020-05-19T11:52:10Z</time>
      </trkpt>
      <trkpt lat="49.1855" lon="2.02195">
        <ele>249</ele>
        <time>2020-05-19T11:52:17Z</time>
      </trkpt>
      <trkpt lat="49.18556" lon="2.02202">
        <ele>248</ele>
        <time>2020-05-19T11:52:23Z</time>
      </trkpt>
      <trkpt lat="49.18563" lon="2.02205">
        <ele>249</ele>
        <time>2020-05-19T11:52:29Z</time>
      </trkpt>
      <trkpt lat="49.18572" lon="2.02209">
        <ele>248</ele>
        <time>2020-05-19T11:52:36Z</time>
      </trkpt>
      <trkpt lat="49.1858" lon="2.02208">
        <ele>247</ele>
        <time>2020-05-19T11:52:42Z</time>
      </trkpt>
      <trkpt lat="49.18587" lon="2.02209">
        <ele>249</ele>
        <time>2020-05-19T11:52:49Z</time>
      </trkpt>
      <trkpt lat="49.18595" lon="2.02211">
        <ele>249</ele>
        <time>2020-05-19T11:52:55Z</time>
      </trkpt>
      <trkpt lat="49.18602" lon="2.0221">
        <ele>248</ele>
        <time>2020-05-19T11:53:02Z</time>
      </trkpt>
      <trkpt lat="49.1861" lon="2.02213">
        <ele>249</ele>
        <time>2020-05-19T11:53:09Z</time>
      </trkpt>
      <trkpt lat="49.18617" lon="2.02217">
        <ele>248</ele>
        <time>2020-05-19T11:53:16Z</time>
      </trkpt>
      <trkpt lat="49.18625" lon="2.02221">
        <ele>248</ele>
        <time>2020-05-19T11:53:21Z</time>
      </trkpt>
      <trkpt lat="49.18632" lon="2.02224">
        <ele>249</ele>
        <time>2020-05-19T11:53:28Z</time>
      </trkpt>
      <trkpt lat="49.1864" lon="2.02227">
        <ele>248</ele>
        <time>2020-05-19T11:53:35Z</time>
      </trkpt>
      <trkpt lat="49.18647" lon="2.02227">
        <ele>248</ele>
        <time>2020-05-19T11:53:42Z</time>
      </trkpt>
      <trkpt lat="49.18656" lon="2.02225">
        <ele>249</ele>
        <time>2020-05-19T11:53:49Z</time>
      </trkpt>
      <trkpt lat="49.18663" lon="2.02227">
        <ele>250</ele>
        <time>2020-05-19T11:53:55Z</time>
      </trkpt>
      <trkpt lat="49.1867" lon="2.02227">
        <ele>250</ele>
        <time>2020-05-19T11:54:02Z</time>
      </trkpt>
      <trkpt lat="49.18678" lon="2.02231">
        <ele>249</ele>
        <time>2020-05-19T11:54:08Z</time>
      </trkpt>
      <trkpt lat="49.18685" lon="2.02235">
        <ele>249</ele>
        <time>2020-05-19T11:54:13Z</time>
      </trkpt>
      <trkpt lat="49.18693" lon="2.02235">
        <ele>250</ele>
        <time>2020-05-19T11:54:19Z</time>
      </trkpt>
      <trkpt lat="49.187" lon="2.02237">
        <ele>249</ele>
        <time>2020-05-19T11:54:25Z</time>
      </trkpt>
      <trkpt lat="49.18708" lon="2.02241">
        <ele>249</ele>
        <time>2020-05-19T11:54:31Z</time>
      </trkpt>
      <trkpt lat="49.18715" lon="2.02244">
        <ele>249</ele>
        <time>2020-05-19T11:54:37Z</time>
      </trkpt>
      <trkpt lat="49.18723" lon="2.02245">
        <ele>249</ele>
        <time>2020-05-19T11:54:44Z</time>
      </trkpt>
      <trkpt lat="49.18731" lon="2.02246">
        <ele>250</ele>
        <time>2020-05-19T11:54:50Z</time>
      </trkpt>
      <trkpt lat="49.18737" lon="2.02245">
        <ele>249</ele>
        <time>2020-05-19T11:54:57Z</time>
      </trkpt>
      <trkpt lat="49.18745" lon="2.02246">
        <ele>247</ele>
        <time>2020-05-19T11:55:03Z</time>
      </trkpt>
      <trkpt lat="49.18753" lon="2.02248">
        <ele>249</ele>
        <time>2020-05-19T11:55:10Z</time>
      </trkpt>
      <trkpt lat="49.18761" lon="2.02243">
        <ele>249</ele>
        <time>2020-05-19T11:55:16Z</time>
      </trkpt>
      <trkpt lat="49.18768" lon="2.02244">
        <ele>249</ele>
        <time>2020-05-19T11:55:23Z</time>
      </trkpt>
      <trkpt lat="49.18774" lon="2.0224">
        <ele>250</ele>
        <time>2020-05-19T11:55:30Z</time>
      </trkpt>
      <trkpt lat="49.18782" lon="2.02237">
        <ele>249</ele>
        <time>2020-05-19T11:55:37Z</time>
      </trkpt>
      <trkpt lat="49.18787" lon="2.02235">
        <ele>247</ele>
        <time>2020-05-19T11:55:44Z</time>
      </trkpt>
      <trkpt lat="49.18794" lon="2.02232">
        <ele>248</ele>
        <time>2020-05-19T11:55:51Z</time>
      </trkpt>
      <trkpt lat="49.18797" lon="2.02229">
        <ele>247</ele>
        <time>2020-05-19T11:55:58Z</time>
      </trkpt>
      <trkpt lat="49.18804" lon="2.02223">
        <ele>248</ele>
        <time>2020-05-19T11:56:05Z</time>
      </trkpt>
      <trkpt lat="49.18811" lon="2.02222">
        <ele>247</ele>
        <time>2020-05-19T11:56:12Z</time>
      </trkpt>
      <trkpt lat="49.18816" lon="2.02213">
        <ele>247</ele>
        <time>2020-05-19T11:56:19Z</time>
      </trkpt>
      <trkpt lat="49.18822" lon="2.02208">
        <ele>244</ele>
        <time>2020-05-19T11:56:25Z</time>
      </trkpt>
      <trkpt lat="49.18828" lon="2.02202">
        <ele>244</ele>
        <time>2020-05-19T11:56:32Z</time>
      </trkpt>
      <trkpt lat="49.18835" lon="2.02197">
        <ele>243</ele>
        <time>2020-05-19T11:56:39Z</time>
      </trkpt>
      <trkpt lat="49.18842" lon="2.02189">
        <ele>243</ele>
        <time>2020-05-19T11:56:46Z</time>
      </trkpt>
      <trkpt lat="49.18847" lon="2.02187">
        <ele>241</ele>
        <time>2020-05-19T11:56:53Z</time>
      </trkpt>
      <trkpt lat="49.18849" lon="2.0219">
        <ele>241</ele>
        <time>2020-05-19T11:57:00Z</time>
      </trkpt>
      <trkpt lat="49.18849" lon="2.0219">
        <ele>241</ele>
        <time>2020-05-19T11:57:07Z</time>
      </trkpt>
      <trkpt lat="49.18853" lon="2.02186">
        <ele>240</ele>
        <time>2020-05-19T11:57:17Z</time>
      </trkpt>
      <trkpt lat="49.18855" lon="2.02183">
        <ele>238</ele>
        <time>2020-05-19T11:57:24Z</time>
      </trkpt>
      <trkpt lat="49.18859" lon="2.02179">
        <ele>237</ele>
        <time>2020-05-19T11:57:31Z</time>
      </trkpt>
      <trkpt lat="49.18864" lon="2.02176">
        <ele>237</ele>
        <time>2020-05-19T11:57:38Z</time>
      </trkpt>
      <trkpt lat="49.18869" lon="2.0217">
        <ele>236</ele>
        <time>2020-05-19T11:57:45Z</time>
      </trkpt>
      <trkpt lat="49.18875" lon="2.02164">
        <ele>235</ele>
        <time>2020-05-19T11:57:52Z</time>
      </trkpt>
      <trkpt lat="49.1888" lon="2.02157">
        <ele>234</ele>
        <time>2020-05-19T11:57:59Z</time>
      </trkpt>
      <trkpt lat="49.18887" lon="2.02152">
        <ele>233</ele>
        <time>2020-05-19T11:58:06Z</time>
      </trkpt>
      <trkpt lat="49.18893" lon="2.02146">
        <ele>232</ele>
        <time>2020-05-19T11:58:13Z</time>
      </trkpt>
      <trkpt lat="49.189" lon="2.0214">
        <ele>236</ele>
        <time>2020-05-19T11:58:20Z</time>
      </trkpt>
      <trkpt lat="49.189" lon="2.0214">
        <ele>236</ele>
        <time>2020-05-19T11:58:27Z</time>
      </trkpt>
      <trkpt lat="49.18908" lon="2.02138">
        <ele>238</ele>
        <time>2020-05-19T11:58:36Z</time>
      </trkpt>
      <trkpt lat="49.18916" lon="2.02136">
        <ele>240</ele>
        <time>2020-05-19T11:58:41Z</time>
      </trkpt>
      <trkpt lat="49.18924" lon="2.02134">
        <ele>241</ele>
        <time>2020-05-19T11:58:46Z</time>
      </trkpt>
      <trkpt lat="49.18931" lon="2.02133">
        <ele>243</ele>
        <time>2020-05-19T11:58:49Z</time>
      </trkpt>
      <trkpt lat="49.1894" lon="2.0213">
        <ele>246</ele>
        <time>2020-05-19T11:58:53Z</time>
      </trkpt>
      <trkpt lat="49.18946" lon="2.02135">
        <ele>246</ele>
        <time>2020-05-19T11:59:00Z</time>
      </trkpt>
      <trkpt lat="49.18953" lon="2.02129">
        <ele>247</ele>
        <time>2020-05-19T11:59:07Z</time>
      </trkpt>
      <trkpt lat="49.18956" lon="2.02126">
        <ele>247</ele>
        <time>2020-05-19T11:59:14Z</time>
      </trkpt>
      <trkpt lat="49.18962" lon="2.02119">
        <ele>246</ele>
        <time>2020-05-19T11:59:21Z</time>
      </trkpt>
      <trkpt lat="49.18966" lon="2.02114">
        <ele>245</ele>
        <time>2020-05-19T11:59:28Z</time>
      </trkpt>
      <trkpt lat="49.18969" lon="2.02105">
        <ele>247</ele>
        <time>2020-05-19T11:59:35Z</time>
      </trkpt>
      <trkpt lat="49.18974" lon="2.02101">
        <ele>246</ele>
        <time>2020-05-19T11:59:42Z</time>
      </trkpt>
      <trkpt lat="49.1898" lon="2.02092">
        <ele>246</ele>
        <time>2020-05-19T11:59:49Z</time>
      </trkpt>
      <trkpt lat="49.18988" lon="2.02086">
        <ele>246</ele>
        <time>2020-05-19T11:59:56Z</time>
      </trkpt>
      <trkpt lat="49.18996" lon="2.02083">
        <ele>246</ele>
        <time>2020-05-19T12:00:03Z</time>
      </trkpt>
      <trkpt lat="49.19004" lon="2.02081">
        <ele>244</ele>
        <time>2020-05-19T12:00:10Z</time>
      </trkpt>
      <trkpt lat="49.19013" lon="2.02076">
        <ele>241</ele>
        <time>2020-05-19T12:00:13Z</time>
      </trkpt>
      <trkpt lat="49.1902" lon="2.02073">
        <ele>241</ele>
        <time>2020-05-19T12:00:18Z</time>
      </trkpt>
      <trkpt lat="49.19027" lon="2.0207">
        <ele>240</ele>
        <time>2020-05-19T12:00:24Z</time>
      </trkpt>
      <trkpt lat="49.19033" lon="2.02068">
        <ele>242</ele>
        <time>2020-05-19T12:00:31Z</time>
      </trkpt>
      <trkpt lat="49.19041" lon="2.0207">
        <ele>243</ele>
        <time>2020-05-19T12:00:38Z</time>
      </trkpt>
      <trkpt lat="49.19046" lon="2.02072">
        <ele>243</ele>
        <time>2020-05-19T12:00:45Z</time>
      </trkpt>
      <trkpt lat="49.19051" lon="2.0207">
        <ele>241</ele>
        <time>2020-05-19T12:00:52Z</time>
      </trkpt>
      <trkpt lat="49.19056" lon="2.02069">
        <ele>241</ele>
        <time>2020-05-19T12:00:59Z</time>
      </trkpt>
      <trkpt lat="49.1906" lon="2.02065">
        <ele>240</ele>
        <time>2020-05-19T12:01:06Z</time>
      </trkpt>
      <trkpt lat="49.19064" lon="2.02061">
        <ele>239</ele>
        <time>2020-05-19T12:01:13Z</time>
      </trkpt>
      <trkpt lat="49.19068" lon="2.02056">
        <ele>237</ele>
        <time>2020-05-19T12:01:20Z</time>
      </trkpt>
      <trkpt lat="49.19073" lon="2.02054">
        <ele>235</ele>
        <time>2020-05-19T12:01:27Z</time>
      </trkpt>
      <trkpt lat="49.19078" lon="2.0205">
        <ele>234</ele>
        <time>2020-05-19T12:01:34Z</time>
      </trkpt>
      <trkpt lat="49.19083" lon="2.02047">
        <ele>232</ele>
        <time>2020-05-19T12:01:41Z</time>
      </trkpt>
      <trkpt lat="49.1909" lon="2.02047">
        <ele>232</ele>
        <time>2020-05-19T12:01:48Z</time>
      </trkpt>
      <trkpt lat="49.19097" lon="2.02052">
        <ele>232</ele>
        <time>2020-05-19T12:01:55Z</time>
      </trkpt>
      <trkpt lat="49.19102" lon="2.02056">
        <ele>231</ele>
        <time>2020-05-19T12:02:02Z</time>
      </trkpt>
      <trkpt lat="49.19105" lon="2.02061">
        <ele>230</ele>
        <time>2020-05-19T12:02:09Z</time>
      </trkpt>
      <trkpt lat="49.1911" lon="2.02069">
        <ele>231</ele>
        <time>2020-05-19T12:02:14Z</time>
      </trkpt>
      <trkpt lat="49.19115" lon="2.02079">
        <ele>230</ele>
        <time>2020-05-19T12:02:20Z</time>
      </trkpt>
      <trkpt lat="49.19118" lon="2.0209">
        <ele>231</ele>
        <time>2020-05-19T12:02:27Z</time>
      </trkpt>
      <trkpt lat="49.19123" lon="2.02098">
        <ele>232</ele>
        <time>2020-05-19T12:02:34Z</time>
      </trkpt>
      <trkpt lat="49.19124" lon="2.02106">
        <ele>230</ele>
        <time>2020-05-19T12:02:41Z</time>
      </trkpt>
      <trkpt lat="49.19122" lon="2.02114">
        <ele>231</ele>
        <time>2020-05-19T12:02:48Z</time>
      </trkpt>
      <trkpt lat="49.19122" lon="2.02119">
        <ele>230</ele>
        <time>2020-05-19T12:02:55Z</time>
      </trkpt>
      <trkpt lat="49.19123" lon="2.02128">
        <ele>230</ele>
        <time>2020-05-19T12:03:02Z</time>
      </trkpt>
      <trkpt lat="49.19122" lon="2.02136">
        <ele>230</ele>
        <time>2020-05-19T12:03:09Z</time>
      </trkpt>
      <trkpt lat="49.19118" lon="2.02146">
        <ele>230</ele>
        <time>2020-05-19T12:03:16Z</time>
      </trkpt>
      <trkpt lat="49.19117" lon="2.02157">
        <ele>229</ele>
        <time>2020-05-19T12:03:21Z</time>
      </trkpt>
      <trkpt lat="49.19113" lon="2.02167">
        <ele>228</ele>
        <time>2020-05-19T12:03:27Z</time>
      </trkpt>
      <trkpt lat="49.19111" lon="2.02176">
        <ele>228</ele>
        <time>2020-05-19T12:03:34Z</time>
      </trkpt>
      <trkpt lat="49.19107" lon="2.02185">
        <ele>227</ele>
        <time>2020-05-19T12:03:41Z</time>
      </trkpt>
      <trkpt lat="49.19105" lon="2.02191">
        <ele>227</ele>
        <time>2020-05-19T12:03:48Z</time>
      </trkpt>
      <trkpt lat="49.19102" lon="2.02202">
        <ele>225</ele>
        <time>2020-05-19T12:03:55Z</time>
      </trkpt>
      <trkpt lat="49.19098" lon="2.02208">
        <ele>225</ele>
        <time>2020-05-19T12:04:02Z</time>
      </trkpt>
      <trkpt lat="49.19092" lon="2.02217">
        <ele>224</ele>
        <time>2020-05-19T12:04:09Z</time>
      </trkpt>
      <trkpt lat="49.19086" lon="2.02223">
        <ele>223</ele>
        <time>2020-05-19T12:04:16Z</time>
      </trkpt>
      <trkpt lat="49.19082" lon="2.0223">
        <ele>222</ele>
        <time>2020-05-19T12:04:23Z</time>
      </trkpt>
      <trkpt lat="49.19078" lon="2.02243">
        <ele>220</ele>
        <time>2020-05-19T12:04:30Z</time>
      </trkpt>
      <trkpt lat="49.19075" lon="2.02253">
        <ele>219</ele>
        <time>2020-05-19T12:04:37Z</time>
      </trkpt>
      <trkpt lat="49.19071" lon="2.02257">
        <ele>219</ele>
        <time>2020-05-19T12:04:44Z</time>
      </trkpt>
      <trkpt lat="49.19067" lon="2.02262">
        <ele>219</ele>
        <time>2020-05-19T12:04:51Z</time>
      </trkpt>
      <trkpt lat="49.19065" lon="2.02273">
        <ele>217</ele>
        <time>2020-05-19T12:04:56Z</time>
      </trkpt>
      <trkpt lat="49.19065" lon="2.02284">
        <ele>215</ele>
        <time>2020-05-19T12:05:03Z</time>
      </trkpt>
      <trkpt lat="49.19063" lon="2.02294">
        <ele>214</ele>
        <time>2020-05-19T12:05:10Z</time>
      </trkpt>
      <trkpt lat="49.19059" lon="2.02303">
        <ele>215</ele>
        <time>2020-05-19T12:05:17Z</time>
      </trkpt>
      <trkpt lat="49.19057" lon="2.02311">
        <ele>214</ele>
        <time>2020-05-19T12:05:24Z</time>
      </trkpt>
      <trkpt lat="49.19055" lon="2.02323">
        <ele>214</ele>
        <time>2020-05-19T12:05:31Z</time>
      </trkpt>
      <trkpt lat="49.19049" lon="2.02332">
        <ele>212</ele>
        <time>2020-05-19T12:05:38Z</time>
      </trkpt>
      <trkpt lat="49.19046" lon="2.02342">
        <ele>211</ele>
        <time>2020-05-19T12:05:45Z</time>
      </trkpt>
      <trkpt lat="49.19043" lon="2.02354">
        <ele>209</ele>
        <time>2020-05-19T12:05:52Z</time>
      </trkpt>
      <trkpt lat="49.19041" lon="2.02365">
        <ele>208</ele>
        <time>2020-05-19T12:05:59Z</time>
      </trkpt>
      <trkpt lat="49.19037" lon="2.02374">
        <ele>209</ele>
        <time>2020-05-19T12:06:06Z</time>
      </trkpt>
      <trkpt lat="49.19032" lon="2.02385">
        <ele>208</ele>
        <time>2020-05-19T12:06:11Z</time>
      </trkpt>
      <trkpt lat="49.19029" lon="2.02392">
        <ele>207</ele>
        <time>2020-05-19T12:06:18Z</time>
      </trkpt>
      <trkpt lat="49.19024" lon="2.02402">
        <ele>206</ele>
        <time>2020-05-19T12:06:25Z</time>
      </trkpt>
      <trkpt lat="49.19021" lon="2.0241">
        <ele>206</ele>
        <time>2020-05-19T12:06:32Z</time>
      </trkpt>
      <trkpt lat="49.19021" lon="2.02421">
        <ele>207</ele>
        <time>2020-05-19T12:06:38Z</time>
      </trkpt>
      <trkpt lat="49.19018" lon="2.02432">
        <ele>205</ele>
        <time>2020-05-19T12:06:45Z</time>
      </trkpt>
      <trkpt lat="49.19012" lon="2.02439">
        <ele>204</ele>
        <time>2020-05-19T12:06:52Z</time>
      </trkpt>
      <trkpt lat="49.19006" lon="2.02448">
        <ele>203</ele>
        <time>2020-05-19T12:06:58Z</time>
      </trkpt>
      <trkpt lat="49.19003" lon="2.0246">
        <ele>204</ele>
        <time>2020-05-19T12:07:04Z</time>
      </trkpt>
      <trkpt lat="49.18999" lon="2.02471">
        <ele>204</ele>
        <time>2020-05-19T12:07:10Z</time>
      </trkpt>
      <trkpt lat="49.18993" lon="2.0248">
        <ele>204</ele>
        <time>2020-05-19T12:07:17Z</time>
      </trkpt>
      <trkpt lat="49.18988" lon="2.02487">
        <ele>204</ele>
        <time>2020-05-19T12:07:23Z</time>
      </trkpt>
      <trkpt lat="49.18984" lon="2.02498">
        <ele>202</ele>
        <time>2020-05-19T12:07:30Z</time>
      </trkpt>
      <trkpt lat="49.18982" lon="2.02507">
        <ele>203</ele>
        <time>2020-05-19T12:07:37Z</time>
      </trkpt>
      <trkpt lat="49.18978" lon="2.02515">
        <ele>203</ele>
        <time>2020-05-19T12:07:44Z</time>
      </trkpt>
      <trkpt lat="49.18977" lon="2.02523">
        <ele>204</ele>
        <time>2020-05-19T12:07:51Z</time>
      </trkpt>
      <trkpt lat="49.18975" lon="2.02535">
        <ele>203</ele>
        <time>2020-05-19T12:07:57Z</time>
      </trkpt>
      <trkpt lat="49.18971" lon="2.02544">
        <ele>203</ele>
        <time>2020-05-19T12:08:03Z</time>
      </trkpt>
      <trkpt lat="49.18969" lon="2.02556">
        <ele>202</ele>
        <time>2020-05-19T12:08:10Z</time>
      </trkpt>
      <trkpt lat="49.18965" lon="2.02567">
        <ele>201</ele>
        <time>2020-05-19T12:08:16Z</time>
      </trkpt>
      <trkpt lat="49.18962" lon="2.02576">
        <ele>202</ele>
        <time>2020-05-19T12:08:22Z</time>
      </trkpt>
      <trkpt lat="49.18958" lon="2.02583">
        <ele>203</ele>
        <time>2020-05-19T12:08:29Z</time>
      </trkpt>
      <trkpt lat="49.18952" lon="2.02591">
        <ele>203</ele>
        <time>2020-05-19T12:08:35Z</time>
      </trkpt>
      <trkpt lat="49.18948" lon="2.02603">
        <ele>203</ele>
        <time>2020-05-19T12:08:41Z</time>
      </trkpt>
      <trkpt lat="49.18945" lon="2.02613">
        <ele>202</ele>
        <time>2020-05-19T12:08:46Z</time>
      </trkpt>
      <trkpt lat="49.18941" lon="2.02623">
        <ele>201</ele>
        <time>2020-05-19T12:08:51Z</time>
      </trkpt>
      <trkpt lat="49.18934" lon="2.02628">
        <ele>202</ele>
        <time>2020-05-19T12:08:58Z</time>
      </trkpt>
      <trkpt lat="49.18927" lon="2.02631">
        <ele>199</ele>
        <time>2020-05-19T12:09:04Z</time>
      </trkpt>
      <trkpt lat="49.18926" lon="2.02636">
        <ele>199</ele>
        <time>2020-05-19T12:09:11Z</time>
      </trkpt>
      <trkpt lat="49.18926" lon="2.02636">
        <ele>199</ele>
        <time>2020-05-19T12:09:12Z</time>
      </trkpt>
      <trkpt lat="49.1892" lon="2.02644">
        <ele>202</ele>
        <time>2020-05-19T12:09:17Z</time>
      </trkpt>
      <trkpt lat="49.18913" lon="2.0265">
        <ele>207</ele>
        <time>2020-05-19T12:09:24Z</time>
      </trkpt>
      <trkpt lat="49.18909" lon="2.02659">
        <ele>213</ele>
        <time>2020-05-19T12:09:31Z</time>
      </trkpt>
      <trkpt lat="49.1891" lon="2.0266">
        <ele>218</ele>
        <time>2020-05-19T12:09:38Z</time>
      </trkpt>
      <trkpt lat="49.18909" lon="2.02661">
        <ele>219</ele>
        <time>2020-05-19T12:09:45Z</time>
      </trkpt>
      <trkpt lat="49.18909" lon="2.02661">
        <ele>219</ele>
        <time>2020-05-19T12:09:46Z</time>
      </trkpt>
      <trkpt lat="49.18909" lon="2.0266">
        <ele>225</ele>
        <time>2020-05-19T12:10:08Z</time>
      </trkpt>
      <trkpt lat="49.18908" lon="2.0266">
        <ele>231</ele>
        <time>2020-05-19T12:10:15Z</time>
      </trkpt>
      <trkpt lat="49.18909" lon="2.02661">
        <ele>232</ele>
        <time>2020-05-19T12:10:22Z</time>
      </trkpt>
      <trkpt lat="49.18909" lon="2.02661">
        <ele>232</ele>
        <time>2020-05-19T12:10:23Z</time>
      </trkpt>
      <trkpt lat="49.18909" lon="2.02662">
        <ele>235</ele>
        <time>2020-05-19T12:10:52Z</time>
      </trkpt>
      <trkpt lat="49.18909" lon="2.02662">
        <ele>235</ele>
        <time>2020-05-19T12:10:53Z</time>
      </trkpt>
      <trkpt lat="49.18908" lon="2.02664">
        <ele>235</ele>
        <time>2020-05-19T12:13:17Z</time>
      </trkpt>
      <trkpt lat="49.1891" lon="2.02664">
        <ele>234</ele>
        <time>2020-05-19T12:13:24Z</time>
      </trkpt>
      <trkpt lat="49.18912" lon="2.02665">
        <ele>234</ele>
        <time>2020-05-19T12:13:31Z</time>
      </trkpt>
      <trkpt lat="49.18912" lon="2.02665">
        <ele>234</ele>
        <time>2020-05-19T12:13:34Z</time>
      </trkpt>
      <trkpt lat="49.18908" lon="2.02665">
        <ele>237</ele>
        <time>2020-05-19T12:13:56Z</time>
      </trkpt>
      <trkpt lat="49.18908" lon="2.02665">
        <ele>237</ele>
        <time>2020-05-19T12:13:57Z</time>
      </trkpt>
      <trkpt lat="49.18908" lon="2.02663">
        <ele>239</ele>
        <time>2020-05-19T12:14:05Z</time>
      </trkpt>
      <trkpt lat="49.18908" lon="2.02663">
        <ele>239</ele>
        <time>2020-05-19T12:14:07Z</time>
      </trkpt>
      <trkpt lat="49.18904" lon="2.02674">
        <ele>261</ele>
        <time>2020-05-19T12:18:39Z</time>
      </trkpt>
      <trkpt lat="49.18899" lon="2.02678">
        <ele>261</ele>
        <time>2020-05-19T12:18:46Z</time>
      </trkpt>
      <trkpt lat="49.18897" lon="2.02684">
        <ele>262</ele>
        <time>2020-05-19T12:18:53Z</time>
      </trkpt>
      <trkpt lat="49.18895" lon="2.02685">
        <ele>262</ele>
        <time>2020-05-19T12:19:00Z</time>
      </trkpt>
      <trkpt lat="49.1889" lon="2.0269">
        <ele>262</ele>
        <time>2020-05-19T12:19:07Z</time>
      </trkpt>
      <trkpt lat="49.18887" lon="2.02696">
        <ele>259</ele>
        <time>2020-05-19T12:19:14Z</time>
      </trkpt>
      <trkpt lat="49.18882" lon="2.02703">
        <ele>256</ele>
        <time>2020-05-19T12:19:21Z</time>
      </trkpt>
      <trkpt lat="49.18877" lon="2.0271">
        <ele>253</ele>
        <time>2020-05-19T12:19:28Z</time>
      </trkpt>
      <trkpt lat="49.18873" lon="2.02718">
        <ele>252</ele>
        <time>2020-05-19T12:19:35Z</time>
      </trkpt>
      <trkpt lat="49.18869" lon="2.02726">
        <ele>250</ele>
        <time>2020-05-19T12:19:42Z</time>
      </trkpt>
      <trkpt lat="49.18868" lon="2.0273">
        <ele>251</ele>
        <time>2020-05-19T12:19:49Z</time>
      </trkpt>
      <trkpt lat="49.18848" lon="2.02766">
        <ele>258</ele>
        <time>2020-05-19T13:31:57Z</time>
      </trkpt>
      <trkpt lat="49.18843" lon="2.02774">
        <ele>258</ele>
        <time>2020-05-19T13:32:04Z</time>
      </trkpt>
      <trkpt lat="49.18844" lon="2.02778">
        <ele>259</ele>
        <time>2020-05-19T13:32:11Z</time>
      </trkpt>
      <trkpt lat="49.18843" lon="2.02781">
        <ele>261</ele>
        <time>2020-05-19T13:32:18Z</time>
      </trkpt>
      <trkpt lat="49.18841" lon="2.02787">
        <ele>262</ele>
        <time>2020-05-19T13:32:25Z</time>
      </trkpt>
      <trkpt lat="49.18836" lon="2.02793">
        <ele>263</ele>
        <time>2020-05-19T13:32:32Z</time>
      </trkpt>
      <trkpt lat="49.1883" lon="2.028">
        <ele>264</ele>
        <time>2020-05-19T13:32:39Z</time>
      </trkpt>
      <trkpt lat="49.18825" lon="2.0281">
        <ele>264</ele>
        <time>2020-05-19T13:32:45Z</time>
      </trkpt>
      <trkpt lat="49.1882" lon="2.02818">
        <ele>264</ele>
        <time>2020-05-19T13:32:50Z</time>
      </trkpt>
      <trkpt lat="49.18818" lon="2.02827">
        <ele>265</ele>
        <time>2020-05-19T13:32:57Z</time>
      </trkpt>
      <trkpt lat="49.1882" lon="2.02835">
        <ele>266</ele>
        <time>2020-05-19T13:33:04Z</time>
      </trkpt>
      <trkpt lat="49.18822" lon="2.02847">
        <ele>264</ele>
        <time>2020-05-19T13:33:10Z</time>
      </trkpt>
      <trkpt lat="49.18822" lon="2.02847">
        <ele>265</ele>
        <time>2020-05-19T13:33:17Z</time>
      </trkpt>
      <trkpt lat="49.1882" lon="2.02859">
        <ele>263</ele>
        <time>2020-05-19T13:33:27Z</time>
      </trkpt>
      <trkpt lat="49.18821" lon="2.02861">
        <ele>262</ele>
        <time>2020-05-19T13:33:34Z</time>
      </trkpt>
      <trkpt lat="49.18821" lon="2.02867">
        <ele>261</ele>
        <time>2020-05-19T13:33:41Z</time>
      </trkpt>
      <trkpt lat="49.18823" lon="2.02875">
        <ele>261</ele>
        <time>2020-05-19T13:33:48Z</time>
      </trkpt>
      <trkpt lat="49.18828" lon="2.02884">
        <ele>261</ele>
        <time>2020-05-19T13:33:55Z</time>
      </trkpt>
      <trkpt lat="49.18828" lon="2.02891">
        <ele>262</ele>
        <time>2020-05-19T13:34:02Z</time>
      </trkpt>
      <trkpt lat="49.18831" lon="2.02895">
        <ele>262</ele>
        <time>2020-05-19T13:34:09Z</time>
      </trkpt>
      <trkpt lat="49.18834" lon="2.02901">
        <ele>263</ele>
        <time>2020-05-19T13:34:16Z</time>
      </trkpt>
      <trkpt lat="49.18835" lon="2.02906">
        <ele>261</ele>
        <time>2020-05-19T13:34:23Z</time>
      </trkpt>
      <trkpt lat="49.18834" lon="2.02917">
        <ele>261</ele>
        <time>2020-05-19T13:34:30Z</time>
      </trkpt>
      <trkpt lat="49.18836" lon="2.02925">
        <ele>261</ele>
        <time>2020-05-19T13:34:37Z</time>
      </trkpt>
      <trkpt lat="49.18836" lon="2.02937">
        <ele>261</ele>
        <time>2020-05-19T13:34:44Z</time>
      </trkpt>
      <trkpt lat="49.18834" lon="2.02946">
        <ele>260</ele>
        <time>2020-05-19T13:34:51Z</time>
      </trkpt>
      <trkpt lat="49.1884" lon="2.02953">
        <ele>260</ele>
        <time>2020-05-19T13:34:57Z</time>
      </trkpt>
      <trkpt lat="49.18847" lon="2.02958">
        <ele>259</ele>
        <time>2020-05-19T13:35:04Z</time>
      </trkpt>
      <trkpt lat="49.1885" lon="2.0296">
        <ele>257</ele>
        <time>2020-05-19T13:35:11Z</time>
      </trkpt>
      <trkpt lat="49.18856" lon="2.02966">
        <ele>253</ele>
        <time>2020-05-19T13:35:18Z</time>
      </trkpt>
      <trkpt lat="49.18859" lon="2.0297">
        <ele>251</ele>
        <time>2020-05-19T13:35:25Z</time>
      </trkpt>
      <trkpt lat="49.18865" lon="2.02975">
        <ele>252</ele>
        <time>2020-05-19T13:35:32Z</time>
      </trkpt>
      <trkpt lat="49.18865" lon="2.02983">
        <ele>252</ele>
        <time>2020-05-19T13:35:39Z</time>
      </trkpt>
      <trkpt lat="49.18868" lon="2.02992">
        <ele>253</ele>
        <time>2020-05-19T13:35:46Z</time>
      </trkpt>
      <trkpt lat="49.18873" lon="2.02996">
        <ele>255</ele>
        <time>2020-05-19T13:35:53Z</time>
      </trkpt>
      <trkpt lat="49.18878" lon="2.03004">
        <ele>255</ele>
        <time>2020-05-19T13:36:00Z</time>
      </trkpt>
      <trkpt lat="49.1888" lon="2.03015">
        <ele>256</ele>
        <time>2020-05-19T13:36:06Z</time>
      </trkpt>
      <trkpt lat="49.18882" lon="2.03025">
        <ele>257</ele>
        <time>2020-05-19T13:36:11Z</time>
      </trkpt>
      <trkpt lat="49.18886" lon="2.03036">
        <ele>259</ele>
        <time>2020-05-19T13:36:17Z</time>
      </trkpt>
      <trkpt lat="49.18892" lon="2.03045">
        <ele>257</ele>
        <time>2020-05-19T13:36:23Z</time>
      </trkpt>
      <trkpt lat="49.18896" lon="2.03051">
        <ele>257</ele>
        <time>2020-05-19T13:36:30Z</time>
      </trkpt>
      <trkpt lat="49.18898" lon="2.03063">
        <ele>255</ele>
        <time>2020-05-19T13:36:36Z</time>
      </trkpt>
      <trkpt lat="49.18901" lon="2.03072">
        <ele>254</ele>
        <time>2020-05-19T13:36:43Z</time>
      </trkpt>
      <trkpt lat="49.18903" lon="2.03083">
        <ele>253</ele>
        <time>2020-05-19T13:36:49Z</time>
      </trkpt>
      <trkpt lat="49.18906" lon="2.03092">
        <ele>253</ele>
        <time>2020-05-19T13:36:56Z</time>
      </trkpt>
      <trkpt lat="49.18908" lon="2.03103">
        <ele>254</ele>
        <time>2020-05-19T13:37:00Z</time>
      </trkpt>
      <trkpt lat="49.18913" lon="2.03112">
        <ele>253</ele>
        <time>2020-05-19T13:37:06Z</time>
      </trkpt>
      <trkpt lat="49.18917" lon="2.03123">
        <ele>253</ele>
        <time>2020-05-19T13:37:12Z</time>
      </trkpt>
      <trkpt lat="49.18917" lon="2.03134">
        <ele>252</ele>
        <time>2020-05-19T13:37:19Z</time>
      </trkpt>
      <trkpt lat="49.18921" lon="2.03144">
        <ele>251</ele>
        <time>2020-05-19T13:37:26Z</time>
      </trkpt>
      <trkpt lat="49.18923" lon="2.03158">
        <ele>249</ele>
        <time>2020-05-19T13:37:31Z</time>
      </trkpt>
      <trkpt lat="49.18927" lon="2.03163">
        <ele>245</ele>
        <time>2020-05-19T13:37:38Z</time>
      </trkpt>
      <trkpt lat="49.18927" lon="2.03163">
        <ele>245</ele>
        <time>2020-05-19T13:37:41Z</time>
      </trkpt>
      <trkpt lat="49.1893" lon="2.03174">
        <ele>240</ele>
        <time>2020-05-19T13:38:00Z</time>
      </trkpt>
      <trkpt lat="49.18934" lon="2.03183">
        <ele>234</ele>
        <time>2020-05-19T13:38:06Z</time>
      </trkpt>
      <trkpt lat="49.18929" lon="2.03193">
        <ele>228</ele>
        <time>2020-05-19T13:38:13Z</time>
      </trkpt>
      <trkpt lat="49.18925" lon="2.03203">
        <ele>228</ele>
        <time>2020-05-19T13:38:19Z</time>
      </trkpt>
      <trkpt lat="49.18918" lon="2.0321">
        <ele>226</ele>
        <time>2020-05-19T13:38:26Z</time>
      </trkpt>
      <trkpt lat="49.18911" lon="2.03218">
        <ele>226</ele>
        <time>2020-05-19T13:38:32Z</time>
      </trkpt>
      <trkpt lat="49.18908" lon="2.03226">
        <ele>225</ele>
        <time>2020-05-19T13:38:39Z</time>
      </trkpt>
      <trkpt lat="49.18907" lon="2.03229">
        <ele>225</ele>
        <time>2020-05-19T13:38:46Z</time>
      </trkpt>
      <trkpt lat="49.18902" lon="2.03237">
        <ele>225</ele>
        <time>2020-05-19T13:38:52Z</time>
      </trkpt>
      <trkpt lat="49.18896" lon="2.03242">
        <ele>227</ele>
        <time>2020-05-19T13:38:59Z</time>
      </trkpt>
      <trkpt lat="49.18889" lon="2.03249">
        <ele>226</ele>
        <time>2020-05-19T13:39:06Z</time>
      </trkpt>
      <trkpt lat="49.18885" lon="2.03258">
        <ele>227</ele>
        <time>2020-05-19T13:39:12Z</time>
      </trkpt>
      <trkpt lat="49.1888" lon="2.03267">
        <ele>228</ele>
        <time>2020-05-19T13:39:18Z</time>
      </trkpt>
      <trkpt lat="49.18872" lon="2.03274">
        <ele>229</ele>
        <time>2020-05-19T13:39:25Z</time>
      </trkpt>
      <trkpt lat="49.18868" lon="2.03283">
        <ele>231</ele>
        <time>2020-05-19T13:39:32Z</time>
      </trkpt>
      <trkpt lat="49.18862" lon="2.03292">
        <ele>232</ele>
        <time>2020-05-19T13:39:39Z</time>
      </trkpt>
      <trkpt lat="49.18857" lon="2.033">
        <ele>232</ele>
        <time>2020-05-19T13:39:46Z</time>
      </trkpt>
      <trkpt lat="49.18851" lon="2.03308">
        <ele>233</ele>
        <time>2020-05-19T13:39:52Z</time>
      </trkpt>
      <trkpt lat="49.18845" lon="2.03315">
        <ele>235</ele>
        <time>2020-05-19T13:39:59Z</time>
      </trkpt>
      <trkpt lat="49.18839" lon="2.03323">
        <ele>235</ele>
        <time>2020-05-19T13:40:04Z</time>
      </trkpt>
      <trkpt lat="49.18834" lon="2.0333">
        <ele>236</ele>
        <time>2020-05-19T13:40:11Z</time>
      </trkpt>
      <trkpt lat="49.18829" lon="2.03339">
        <ele>237</ele>
        <time>2020-05-19T13:40:17Z</time>
      </trkpt>
      <trkpt lat="49.18822" lon="2.03346">
        <ele>238</ele>
        <time>2020-05-19T13:40:23Z</time>
      </trkpt>
      <trkpt lat="49.18814" lon="2.0335">
        <ele>238</ele>
        <time>2020-05-19T13:40:30Z</time>
      </trkpt>
      <trkpt lat="49.18806" lon="2.03355">
        <ele>239</ele>
        <time>2020-05-19T13:40:36Z</time>
      </trkpt>
      <trkpt lat="49.18799" lon="2.03361">
        <ele>239</ele>
        <time>2020-05-19T13:40:41Z</time>
      </trkpt>
      <trkpt lat="49.18793" lon="2.03366">
        <ele>238</ele>
        <time>2020-05-19T13:40:46Z</time>
      </trkpt>
      <trkpt lat="49.18788" lon="2.0337">
        <ele>239</ele>
        <time>2020-05-19T13:40:53Z</time>
      </trkpt>
      <trkpt lat="49.18781" lon="2.03376">
        <ele>239</ele>
        <time>2020-05-19T13:40:59Z</time>
      </trkpt>
      <trkpt lat="49.18774" lon="2.03379">
        <ele>238</ele>
        <time>2020-05-19T13:41:05Z</time>
      </trkpt>
      <trkpt lat="49.18767" lon="2.03384">
        <ele>240</ele>
        <time>2020-05-19T13:41:09Z</time>
      </trkpt>
      <trkpt lat="49.18759" lon="2.03388">
        <ele>239</ele>
        <time>2020-05-19T13:41:13Z</time>
      </trkpt>
      <trkpt lat="49.18751" lon="2.0339">
        <ele>237</ele>
        <time>2020-05-19T13:41:19Z</time>
      </trkpt>
      <trkpt lat="49.18744" lon="2.03392">
        <ele>237</ele>
        <time>2020-05-19T13:41:24Z</time>
      </trkpt>
      <trkpt lat="49.18737" lon="2.03397">
        <ele>236</ele>
        <time>2020-05-19T13:41:30Z</time>
      </trkpt>
      <trkpt lat="49.18728" lon="2.03404">
        <ele>238</ele>
        <time>2020-05-19T13:41:36Z</time>
      </trkpt>
      <trkpt lat="49.1872" lon="2.03409">
        <ele>239</ele>
        <time>2020-05-19T13:41:39Z</time>
      </trkpt>
      <trkpt lat="49.18713" lon="2.03412">
        <ele>239</ele>
        <time>2020-05-19T13:41:43Z</time>
      </trkpt>
      <trkpt lat="49.1871" lon="2.0342">
        <ele>238</ele>
        <time>2020-05-19T13:41:50Z</time>
      </trkpt>
      <trkpt lat="49.18704" lon="2.0343">
        <ele>237</ele>
        <time>2020-05-19T13:41:57Z</time>
      </trkpt>
      <trkpt lat="49.18698" lon="2.03438">
        <ele>236</ele>
        <time>2020-05-19T13:42:04Z</time>
      </trkpt>
      <trkpt lat="49.18696" lon="2.0345">
        <ele>235</ele>
        <time>2020-05-19T13:42:11Z</time>
      </trkpt>
      <trkpt lat="49.18693" lon="2.03462">
        <ele>236</ele>
        <time>2020-05-19T13:42:16Z</time>
      </trkpt>
      <trkpt lat="49.1869" lon="2.03474">
        <ele>234</ele>
        <time>2020-05-19T13:42:20Z</time>
      </trkpt>
      <trkpt lat="49.18693" lon="2.03486">
        <ele>234</ele>
        <time>2020-05-19T13:42:27Z</time>
      </trkpt>
      <trkpt lat="49.1869" lon="2.03498">
        <ele>233</ele>
        <time>2020-05-19T13:42:31Z</time>
      </trkpt>
      <trkpt lat="49.18689" lon="2.0351">
        <ele>235</ele>
        <time>2020-05-19T13:42:36Z</time>
      </trkpt>
      <trkpt lat="49.18685" lon="2.03521">
        <ele>233</ele>
        <time>2020-05-19T13:42:41Z</time>
      </trkpt>
      <trkpt lat="49.1868" lon="2.0353">
        <ele>230</ele>
        <time>2020-05-19T13:42:46Z</time>
      </trkpt>
      <trkpt lat="49.18675" lon="2.0354">
        <ele>230</ele>
        <time>2020-05-19T13:42:51Z</time>
      </trkpt>
      <trkpt lat="49.18671" lon="2.03551">
        <ele>231</ele>
        <time>2020-05-19T13:42:56Z</time>
      </trkpt>
      <trkpt lat="49.18667" lon="2.03561">
        <ele>230</ele>
        <time>2020-05-19T13:43:03Z</time>
      </trkpt>
      <trkpt lat="49.18662" lon="2.0357">
        <ele>229</ele>
        <time>2020-05-19T13:43:10Z</time>
      </trkpt>
      <trkpt lat="49.18657" lon="2.03581">
        <ele>227</ele>
        <time>2020-05-19T13:43:16Z</time>
      </trkpt>
      <trkpt lat="49.18651" lon="2.03589">
        <ele>226</ele>
        <time>2020-05-19T13:43:20Z</time>
      </trkpt>
      <trkpt lat="49.18645" lon="2.03596">
        <ele>224</ele>
        <time>2020-05-19T13:43:24Z</time>
      </trkpt>
      <trkpt lat="49.18639" lon="2.03604">
        <ele>224</ele>
        <time>2020-05-19T13:43:28Z</time>
      </trkpt>
      <trkpt lat="49.18635" lon="2.03612">
        <ele>223</ele>
        <time>2020-05-19T13:43:33Z</time>
      </trkpt>
      <trkpt lat="49.1863" lon="2.03622">
        <ele>221</ele>
        <time>2020-05-19T13:43:39Z</time>
      </trkpt>
      <trkpt lat="49.18626" lon="2.03632">
        <ele>221</ele>
        <time>2020-05-19T13:43:45Z</time>
      </trkpt>
      <trkpt lat="49.18621" lon="2.03638">
        <ele>220</ele>
        <time>2020-05-19T13:43:52Z</time>
      </trkpt>
      <trkpt lat="49.18616" lon="2.03648">
        <ele>219</ele>
        <time>2020-05-19T13:43:58Z</time>
      </trkpt>
      <trkpt lat="49.18611" lon="2.03659">
        <ele>219</ele>
        <time>2020-05-19T13:44:03Z</time>
      </trkpt>
      <trkpt lat="49.18606" lon="2.03666">
        <ele>217</ele>
        <time>2020-05-19T13:44:07Z</time>
      </trkpt>
      <trkpt lat="49.18599" lon="2.03674">
        <ele>218</ele>
        <time>2020-05-19T13:44:12Z</time>
      </trkpt>
      <trkpt lat="49.18595" lon="2.03684">
        <ele>216</ele>
        <time>2020-05-19T13:44:18Z</time>
      </trkpt>
      <trkpt lat="49.18593" lon="2.03693">
        <ele>217</ele>
        <time>2020-05-19T13:44:25Z</time>
      </trkpt>
      <trkpt lat="49.18584" lon="2.03703">
        <ele>216</ele>
        <time>2020-05-19T13:44:31Z</time>
      </trkpt>
      <trkpt lat="49.18573" lon="2.03712">
        <ele>213</ele>
        <time>2020-05-19T13:44:33Z</time>
      </trkpt>
      <trkpt lat="49.18567" lon="2.03719">
        <ele>211</ele>
        <time>2020-05-19T13:44:35Z</time>
      </trkpt>
      <trkpt lat="49.18562" lon="2.03725">
        <ele>208</ele>
        <time>2020-05-19T13:44:42Z</time>
      </trkpt>
      <trkpt lat="49.18562" lon="2.03725">
        <ele>208</ele>
        <time>2020-05-19T13:44:44Z</time>
      </trkpt>
      <trkpt lat="49.18556" lon="2.03734">
        <ele>204</ele>
        <time>2020-05-19T13:44:51Z</time>
      </trkpt>
      <trkpt lat="49.18549" lon="2.0374">
        <ele>200</ele>
        <time>2020-05-19T13:44:57Z</time>
      </trkpt>
      <trkpt lat="49.18541" lon="2.03744">
        <ele>200</ele>
        <time>2020-05-19T13:45:03Z</time>
      </trkpt>
      <trkpt lat="49.18534" lon="2.03751">
        <ele>199</ele>
        <time>2020-05-19T13:45:09Z</time>
      </trkpt>
      <trkpt lat="49.18526" lon="2.03757">
        <ele>199</ele>
        <time>2020-05-19T13:45:14Z</time>
      </trkpt>
      <trkpt lat="49.18519" lon="2.03762">
        <ele>199</ele>
        <time>2020-05-19T13:45:20Z</time>
      </trkpt>
      <trkpt lat="49.18512" lon="2.03771">
        <ele>198</ele>
        <time>2020-05-19T13:45:25Z</time>
      </trkpt>
      <trkpt lat="49.18505" lon="2.03775">
        <ele>197</ele>
        <time>2020-05-19T13:45:30Z</time>
      </trkpt>
      <trkpt lat="49.18497" lon="2.0378">
        <ele>196</ele>
        <time>2020-05-19T13:45:37Z</time>
      </trkpt>
      <trkpt lat="49.18489" lon="2.03787">
        <ele>195</ele>
        <time>2020-05-19T13:45:43Z</time>
      </trkpt>
      <trkpt lat="49.18482" lon="2.0379">
        <ele>194</ele>
        <time>2020-05-19T13:45:49Z</time>
      </trkpt>
      <trkpt lat="49.18475" lon="2.03792">
        <ele>194</ele>
        <time>2020-05-19T13:45:55Z</time>
      </trkpt>
      <trkpt lat="49.18467" lon="2.03796">
        <ele>193</ele>
        <time>2020-05-19T13:46:00Z</time>
      </trkpt>
      <trkpt lat="49.1846" lon="2.03798">
        <ele>192</ele>
        <time>2020-05-19T13:46:05Z</time>
      </trkpt>
      <trkpt lat="49.18451" lon="2.03801">
        <ele>191</ele>
        <time>2020-05-19T13:46:11Z</time>
      </trkpt>
      <trkpt lat="49.18444" lon="2.038">
        <ele>191</ele>
        <time>2020-05-19T13:46:16Z</time>
      </trkpt>
      <trkpt lat="49.18437" lon="2.03801">
        <ele>191</ele>
        <time>2020-05-19T13:46:23Z</time>
      </trkpt>
      <trkpt lat="49.18429" lon="2.03798">
        <ele>189</ele>
        <time>2020-05-19T13:46:29Z</time>
      </trkpt>
      <trkpt lat="49.18421" lon="2.03796">
        <ele>188</ele>
        <time>2020-05-19T13:46:35Z</time>
      </trkpt>
      <trkpt lat="49.18414" lon="2.03794">
        <ele>187</ele>
        <time>2020-05-19T13:46:41Z</time>
      </trkpt>
      <trkpt lat="49.18406" lon="2.03794">
        <ele>188</ele>
        <time>2020-05-19T13:46:46Z</time>
      </trkpt>
      <trkpt lat="49.18399" lon="2.03794">
        <ele>188</ele>
        <time>2020-05-19T13:46:51Z</time>
      </trkpt>
      <trkpt lat="49.1839" lon="2.03791">
        <ele>186</ele>
        <time>2020-05-19T13:46:57Z</time>
      </trkpt>
      <trkpt lat="49.18383" lon="2.03788">
        <ele>187</ele>
        <time>2020-05-19T13:47:03Z</time>
      </trkpt>
      <trkpt lat="49.18376" lon="2.03787">
        <ele>187</ele>
        <time>2020-05-19T13:47:08Z</time>
      </trkpt>
      <trkpt lat="49.18367" lon="2.03787">
        <ele>187</ele>
        <time>2020-05-19T13:47:14Z</time>
      </trkpt>
      <trkpt lat="49.18359" lon="2.03788">
        <ele>186</ele>
        <time>2020-05-19T13:47:20Z</time>
      </trkpt>
      <trkpt lat="49.18351" lon="2.0379">
        <ele>187</ele>
        <time>2020-05-19T13:47:26Z</time>
      </trkpt>
      <trkpt lat="49.18343" lon="2.0379">
        <ele>186</ele>
        <time>2020-05-19T13:47:32Z</time>
      </trkpt>
      <trkpt lat="49.18336" lon="2.03789">
        <ele>185</ele>
        <time>2020-05-19T13:47:38Z</time>
      </trkpt>
      <trkpt lat="49.18328" lon="2.03794">
        <ele>185</ele>
        <time>2020-05-19T13:47:44Z</time>
      </trkpt>
      <trkpt lat="49.18322" lon="2.03799">
        <ele>185</ele>
        <time>2020-05-19T13:47:50Z</time>
      </trkpt>
      <trkpt lat="49.18314" lon="2.03804">
        <ele>184</ele>
        <time>2020-05-19T13:47:55Z</time>
      </trkpt>
      <trkpt lat="49.18306" lon="2.03809">
        <ele>185</ele>
        <time>2020-05-19T13:48:00Z</time>
      </trkpt>
      <trkpt lat="49.18298" lon="2.03814">
        <ele>184</ele>
        <time>2020-05-19T13:48:07Z</time>
      </trkpt>
      <trkpt lat="49.18291" lon="2.0382">
        <ele>182</ele>
        <time>2020-05-19T13:48:12Z</time>
      </trkpt>
      <trkpt lat="49.18284" lon="2.03825">
        <ele>181</ele>
        <time>2020-05-19T13:48:18Z</time>
      </trkpt>
      <trkpt lat="49.18277" lon="2.03831">
        <ele>182</ele>
        <time>2020-05-19T13:48:24Z</time>
      </trkpt>
      <trkpt lat="49.1827" lon="2.03836">
        <ele>181</ele>
        <time>2020-05-19T13:48:29Z</time>
      </trkpt>
      <trkpt lat="49.18262" lon="2.03841">
        <ele>181</ele>
        <time>2020-05-19T13:48:34Z</time>
      </trkpt>
      <trkpt lat="49.18255" lon="2.03844">
        <ele>182</ele>
        <time>2020-05-19T13:48:40Z</time>
      </trkpt>
      <trkpt lat="49.18247" lon="2.03848">
        <ele>182</ele>
        <time>2020-05-19T13:48:46Z</time>
      </trkpt>
      <trkpt lat="49.18239" lon="2.03852">
        <ele>183</ele>
        <time>2020-05-19T13:48:52Z</time>
      </trkpt>
      <trkpt lat="49.1823" lon="2.03852">
        <ele>182</ele>
        <time>2020-05-19T13:48:58Z</time>
      </trkpt>
      <trkpt lat="49.18222" lon="2.03853">
        <ele>182</ele>
        <time>2020-05-19T13:49:04Z</time>
      </trkpt>
      <trkpt lat="49.18213" lon="2.03853">
        <ele>182</ele>
        <time>2020-05-19T13:49:10Z</time>
      </trkpt>
      <trkpt lat="49.18206" lon="2.03854">
        <ele>182</ele>
        <time>2020-05-19T13:49:15Z</time>
      </trkpt>
      <trkpt lat="49.18199" lon="2.03854">
        <ele>182</ele>
        <time>2020-05-19T13:49:20Z</time>
      </trkpt>
      <trkpt lat="49.18191" lon="2.03854">
        <ele>181</ele>
        <time>2020-05-19T13:49:26Z</time>
      </trkpt>
      <trkpt lat="49.18183" lon="2.03856">
        <ele>180</ele>
        <time>2020-05-19T13:49:31Z</time>
      </trkpt>
      <trkpt lat="49.18175" lon="2.03858">
        <ele>180</ele>
        <time>2020-05-19T13:49:37Z</time>
      </trkpt>
      <trkpt lat="49.18167" lon="2.03858">
        <ele>180</ele>
        <time>2020-05-19T13:49:43Z</time>
      </trkpt>
      <trkpt lat="49.1816" lon="2.03859">
        <ele>181</ele>
        <time>2020-05-19T13:49:48Z</time>
      </trkpt>
      <trkpt lat="49.18152" lon="2.03859">
        <ele>181</ele>
        <time>2020-05-19T13:49:53Z</time>
      </trkpt>
      <trkpt lat="49.18145" lon="2.0386">
        <ele>181</ele>
        <time>2020-05-19T13:49:58Z</time>
      </trkpt>
      <trkpt lat="49.18137" lon="2.03861">
        <ele>182</ele>
        <time>2020-05-19T13:50:03Z</time>
      </trkpt>
      <trkpt lat="49.18129" lon="2.03862">
        <ele>182</ele>
        <time>2020-05-19T13:50:08Z</time>
      </trkpt>
      <trkpt lat="49.18121" lon="2.03862">
        <ele>184</ele>
        <time>2020-05-19T13:50:15Z</time>
      </trkpt>
      <trkpt lat="49.18114" lon="2.03864">
        <ele>184</ele>
        <time>2020-05-19T13:50:21Z</time>
      </trkpt>
      <trkpt lat="49.18106" lon="2.03866">
        <ele>184</ele>
        <time>2020-05-19T13:50:27Z</time>
      </trkpt>
      <trkpt lat="49.18098" lon="2.03868">
        <ele>184</ele>
        <time>2020-05-19T13:50:32Z</time>
      </trkpt>
      <trkpt lat="49.1809" lon="2.0387">
        <ele>184</ele>
        <time>2020-05-19T13:50:39Z</time>
      </trkpt>
      <trkpt lat="49.18082" lon="2.03873">
        <ele>184</ele>
        <time>2020-05-19T13:50:46Z</time>
      </trkpt>
      <trkpt lat="49.18074" lon="2.03874">
        <ele>184</ele>
        <time>2020-05-19T13:50:51Z</time>
      </trkpt>
      <trkpt lat="49.18067" lon="2.03876">
        <ele>184</ele>
        <time>2020-05-19T13:50:57Z</time>
      </trkpt>
      <trkpt lat="49.18059" lon="2.03876">
        <ele>185</ele>
        <time>2020-05-19T13:51:02Z</time>
      </trkpt>
      <trkpt lat="49.18053" lon="2.03871">
        <ele>186</ele>
        <time>2020-05-19T13:51:09Z</time>
      </trkpt>
      <trkpt lat="49.18048" lon="2.03861">
        <ele>188</ele>
        <time>2020-05-19T13:51:15Z</time>
      </trkpt>
      <trkpt lat="49.18051" lon="2.0385">
        <ele>187</ele>
        <time>2020-05-19T13:51:21Z</time>
      </trkpt>
      <trkpt lat="49.18056" lon="2.0384">
        <ele>187</ele>
        <time>2020-05-19T13:51:27Z</time>
      </trkpt>
      <trkpt lat="49.18061" lon="2.03831">
        <ele>186</ele>
        <time>2020-05-19T13:51:33Z</time>
      </trkpt>
      <trkpt lat="49.18061" lon="2.03819">
        <ele>187</ele>
        <time>2020-05-19T13:51:40Z</time>
      </trkpt>
      <trkpt lat="49.18057" lon="2.03808">
        <ele>188</ele>
        <time>2020-05-19T13:51:47Z</time>
      </trkpt>
      <trkpt lat="49.18054" lon="2.03797">
        <ele>188</ele>
        <time>2020-05-19T13:51:53Z</time>
      </trkpt>
      <trkpt lat="49.18052" lon="2.03786">
        <ele>188</ele>
        <time>2020-05-19T13:51:59Z</time>
      </trkpt>
      <trkpt lat="49.18053" lon="2.03774">
        <ele>189</ele>
        <time>2020-05-19T13:52:05Z</time>
      </trkpt>
      <trkpt lat="49.18051" lon="2.03762">
        <ele>189</ele>
        <time>2020-05-19T13:52:11Z</time>
      </trkpt>
      <trkpt lat="49.18049" lon="2.03752">
        <ele>190</ele>
        <time>2020-05-19T13:52:16Z</time>
      </trkpt>
      <trkpt lat="49.18047" lon="2.0374">
        <ele>189</ele>
        <time>2020-05-19T13:52:22Z</time>
      </trkpt>
      <trkpt lat="49.18048" lon="2.03727">
        <ele>190</ele>
        <time>2020-05-19T13:52:28Z</time>
      </trkpt>
      <trkpt lat="49.18051" lon="2.03715">
        <ele>190</ele>
        <time>2020-05-19T13:52:34Z</time>
      </trkpt>
      <trkpt lat="49.18048" lon="2.03705">
        <ele>190</ele>
        <time>2020-05-19T13:52:41Z</time>
      </trkpt>
      <trkpt lat="49.18052" lon="2.03694">
        <ele>189</ele>
        <time>2020-05-19T13:52:47Z</time>
      </trkpt>
      <trkpt lat="49.18052" lon="2.03682">
        <ele>188</ele>
        <time>2020-05-19T13:52:53Z</time>
      </trkpt>
      <trkpt lat="49.18052" lon="2.03671">
        <ele>188</ele>
        <time>2020-05-19T13:53:00Z</time>
      </trkpt>
      <trkpt lat="49.18051" lon="2.03659">
        <ele>186</ele>
        <time>2020-05-19T13:53:06Z</time>
      </trkpt>
      <trkpt lat="49.18052" lon="2.03647">
        <ele>186</ele>
        <time>2020-05-19T13:53:11Z</time>
      </trkpt>
      <trkpt lat="49.18053" lon="2.03635">
        <ele>186</ele>
        <time>2020-05-19T13:53:17Z</time>
      </trkpt>
      <trkpt lat="49.18052" lon="2.03623">
        <ele>188</ele>
        <time>2020-05-19T13:53:23Z</time>
      </trkpt>
      <trkpt lat="49.18053" lon="2.03612">
        <ele>188</ele>
        <time>2020-05-19T13:53:30Z</time>
      </trkpt>
      <trkpt lat="49.18052" lon="2.03599">
        <ele>188</ele>
        <time>2020-05-19T13:53:37Z</time>
      </trkpt>
      <trkpt lat="49.18052" lon="2.03588">
        <ele>189</ele>
        <time>2020-05-19T13:53:43Z</time>
      </trkpt>
      <trkpt lat="49.18053" lon="2.03577">
        <ele>189</ele>
        <time>2020-05-19T13:53:48Z</time>
      </trkpt>
      <trkpt lat="49.18054" lon="2.03565">
        <ele>190</ele>
        <time>2020-05-19T13:53:54Z</time>
      </trkpt>
      <trkpt lat="49.18055" lon="2.03552">
        <ele>190</ele>
        <time>2020-05-19T13:54:00Z</time>
      </trkpt>
      <trkpt lat="49.18056" lon="2.03541">
        <ele>191</ele>
        <time>2020-05-19T13:54:06Z</time>
      </trkpt>
      <trkpt lat="49.18057" lon="2.03529">
        <ele>191</ele>
        <time>2020-05-19T13:54:12Z</time>
      </trkpt>
      <trkpt lat="49.18057" lon="2.03517">
        <ele>193</ele>
        <time>2020-05-19T13:54:18Z</time>
      </trkpt>
      <trkpt lat="49.18058" lon="2.03505">
        <ele>195</ele>
        <time>2020-05-19T13:54:24Z</time>
      </trkpt>
      <trkpt lat="49.18058" lon="2.03491">
        <ele>194</ele>
        <time>2020-05-19T13:54:30Z</time>
      </trkpt>
      <trkpt lat="49.18058" lon="2.03478">
        <ele>194</ele>
        <time>2020-05-19T13:54:36Z</time>
      </trkpt>
      <trkpt lat="49.1806" lon="2.03466">
        <ele>195</ele>
        <time>2020-05-19T13:54:42Z</time>
      </trkpt>
      <trkpt lat="49.18058" lon="2.03454">
        <ele>197</ele>
        <time>2020-05-19T13:54:49Z</time>
      </trkpt>
      <trkpt lat="49.18056" lon="2.03442">
        <ele>196</ele>
        <time>2020-05-19T13:54:55Z</time>
      </trkpt>
      <trkpt lat="49.18056" lon="2.03431">
        <ele>195</ele>
        <time>2020-05-19T13:55:01Z</time>
      </trkpt>
      <trkpt lat="49.18055" lon="2.0342">
        <ele>195</ele>
        <time>2020-05-19T13:55:07Z</time>
      </trkpt>
      <trkpt lat="49.18054" lon="2.0341">
        <ele>195</ele>
        <time>2020-05-19T13:55:13Z</time>
      </trkpt>
      <trkpt lat="49.18053" lon="2.03404">
        <ele>196</ele>
        <time>2020-05-19T13:55:20Z</time>
      </trkpt>
      <trkpt lat="49.1805" lon="2.03397">
        <ele>196</ele>
        <time>2020-05-19T13:55:27Z</time>
      </trkpt>
      <trkpt lat="49.18049" lon="2.03388">
        <ele>197</ele>
        <time>2020-05-19T13:55:34Z</time>
      </trkpt>
      <trkpt lat="49.18047" lon="2.03376">
        <ele>197</ele>
        <time>2020-05-19T13:55:40Z</time>
      </trkpt>
      <trkpt lat="49.18046" lon="2.03366">
        <ele>197</ele>
        <time>2020-05-19T13:55:45Z</time>
      </trkpt>
      <trkpt lat="49.18043" lon="2.03354">
        <ele>196</ele>
        <time>2020-05-19T13:55:51Z</time>
      </trkpt>
      <trkpt lat="49.18041" lon="2.03343">
        <ele>196</ele>
        <time>2020-05-19T13:55:56Z</time>
      </trkpt>
      <trkpt lat="49.18039" lon="2.03332">
        <ele>197</ele>
        <time>2020-05-19T13:56:01Z</time>
      </trkpt>
      <trkpt lat="49.18036" lon="2.03322">
        <ele>197</ele>
        <time>2020-05-19T13:56:07Z</time>
      </trkpt>
      <trkpt lat="49.18033" lon="2.03311">
        <ele>198</ele>
        <time>2020-05-19T13:56:12Z</time>
      </trkpt>
      <trkpt lat="49.18032" lon="2.03299">
        <ele>198</ele>
        <time>2020-05-19T13:56:19Z</time>
      </trkpt>
      <trkpt lat="49.1803" lon="2.03288">
        <ele>200</ele>
        <time>2020-05-19T13:56:26Z</time>
      </trkpt>
      <trkpt lat="49.1803" lon="2.03275">
        <ele>200</ele>
        <time>2020-05-19T13:56:32Z</time>
      </trkpt>
      <trkpt lat="49.18031" lon="2.03264">
        <ele>202</ele>
        <time>2020-05-19T13:56:38Z</time>
      </trkpt>
      <trkpt lat="49.18031" lon="2.03253">
        <ele>202</ele>
        <time>2020-05-19T13:56:45Z</time>
      </trkpt>
      <trkpt lat="49.18031" lon="2.03242">
        <ele>203</ele>
        <time>2020-05-19T13:56:50Z</time>
      </trkpt>
      <trkpt lat="49.18029" lon="2.03231">
        <ele>204</ele>
        <time>2020-05-19T13:56:57Z</time>
      </trkpt>
      <trkpt lat="49.1803" lon="2.03219">
        <ele>203</ele>
        <time>2020-05-19T13:57:03Z</time>
      </trkpt>
      <trkpt lat="49.1803" lon="2.03207">
        <ele>203</ele>
        <time>2020-05-19T13:57:09Z</time>
      </trkpt>
      <trkpt lat="49.18031" lon="2.03195">
        <ele>203</ele>
        <time>2020-05-19T13:57:16Z</time>
      </trkpt>
      <trkpt lat="49.1803" lon="2.03184">
        <ele>203</ele>
        <time>2020-05-19T13:57:23Z</time>
      </trkpt>
      <trkpt lat="49.18034" lon="2.03172">
        <ele>202</ele>
        <time>2020-05-19T13:57:29Z</time>
      </trkpt>
      <trkpt lat="49.18036" lon="2.03161">
        <ele>203</ele>
        <time>2020-05-19T13:57:36Z</time>
      </trkpt>
      <trkpt lat="49.18037" lon="2.0315">
        <ele>202</ele>
        <time>2020-05-19T13:57:43Z</time>
      </trkpt>
      <trkpt lat="49.18038" lon="2.03141">
        <ele>202</ele>
        <time>2020-05-19T13:57:50Z</time>
      </trkpt>
      <trkpt lat="49.18039" lon="2.0313">
        <ele>201</ele>
        <time>2020-05-19T13:57:57Z</time>
      </trkpt>
      <trkpt lat="49.18041" lon="2.03119">
        <ele>200</ele>
        <time>2020-05-19T13:58:04Z</time>
      </trkpt>
      <trkpt lat="49.18043" lon="2.0311">
        <ele>200</ele>
        <time>2020-05-19T13:58:11Z</time>
      </trkpt>
      <trkpt lat="49.18045" lon="2.03101">
        <ele>200</ele>
        <time>2020-05-19T13:58:18Z</time>
      </trkpt>
      <trkpt lat="49.18046" lon="2.03091">
        <ele>201</ele>
        <time>2020-05-19T13:58:25Z</time>
      </trkpt>
      <trkpt lat="49.18048" lon="2.03081">
        <ele>201</ele>
        <time>2020-05-19T13:58:32Z</time>
      </trkpt>
      <trkpt lat="49.1805" lon="2.03071">
        <ele>200</ele>
        <time>2020-05-19T13:58:39Z</time>
      </trkpt>
      <trkpt lat="49.18052" lon="2.03061">
        <ele>200</ele>
        <time>2020-05-19T13:58:46Z</time>
      </trkpt>
      <trkpt lat="49.18054" lon="2.03051">
        <ele>201</ele>
        <time>2020-05-19T13:58:53Z</time>
      </trkpt>
      <trkpt lat="49.18056" lon="2.03044">
        <ele>201</ele>
        <time>2020-05-19T13:59:00Z</time>
      </trkpt>
      <trkpt lat="49.18057" lon="2.03037">
        <ele>202</ele>
        <time>2020-05-19T13:59:07Z</time>
      </trkpt>
      <trkpt lat="49.18058" lon="2.03028">
        <ele>205</ele>
        <time>2020-05-19T13:59:14Z</time>
      </trkpt>
      <trkpt lat="49.1806" lon="2.03017">
        <ele>206</ele>
        <time>2020-05-19T13:59:21Z</time>
      </trkpt>
      <trkpt lat="49.18062" lon="2.0301">
        <ele>211</ele>
        <time>2020-05-19T13:59:28Z</time>
      </trkpt>
      <trkpt lat="49.18065" lon="2.02998">
        <ele>210</ele>
        <time>2020-05-19T13:59:35Z</time>
      </trkpt>
      <trkpt lat="49.18065" lon="2.02989">
        <ele>210</ele>
        <time>2020-05-19T13:59:42Z</time>
      </trkpt>
      <trkpt lat="49.18068" lon="2.0298">
        <ele>212</ele>
        <time>2020-05-19T13:59:49Z</time>
      </trkpt>
      <trkpt lat="49.18071" lon="2.02972">
        <ele>213</ele>
        <time>2020-05-19T13:59:56Z</time>
      </trkpt>
      <trkpt lat="49.18073" lon="2.02963">
        <ele>213</ele>
        <time>2020-05-19T14:00:03Z</time>
      </trkpt>
      <trkpt lat="49.18076" lon="2.02953">
        <ele>214</ele>
        <time>2020-05-19T14:00:10Z</time>
      </trkpt>
      <trkpt lat="49.18077" lon="2.02943">
        <ele>216</ele>
        <time>2020-05-19T14:00:17Z</time>
      </trkpt>
      <trkpt lat="49.18075" lon="2.02934">
        <ele>218</ele>
        <time>2020-05-19T14:00:24Z</time>
      </trkpt>
      <trkpt lat="49.18071" lon="2.02927">
        <ele>219</ele>
        <time>2020-05-19T14:00:31Z</time>
      </trkpt>
      <trkpt lat="49.18065" lon="2.0292">
        <ele>220</ele>
        <time>2020-05-19T14:00:37Z</time>
      </trkpt>
      <trkpt lat="49.1806" lon="2.02912">
        <ele>222</ele>
        <time>2020-05-19T14:00:43Z</time>
      </trkpt>
      <trkpt lat="49.18055" lon="2.02902">
        <ele>222</ele>
        <time>2020-05-19T14:00:50Z</time>
      </trkpt>
      <trkpt lat="49.18051" lon="2.02893">
        <ele>223</ele>
        <time>2020-05-19T14:00:57Z</time>
      </trkpt>
      <trkpt lat="49.18049" lon="2.02883">
        <ele>227</ele>
        <time>2020-05-19T14:01:04Z</time>
      </trkpt>
      <trkpt lat="49.18046" lon="2.02876">
        <ele>228</ele>
        <time>2020-05-19T14:01:11Z</time>
      </trkpt>
      <trkpt lat="49.18047" lon="2.02874">
        <ele>228</ele>
        <time>2020-05-19T14:01:18Z</time>
      </trkpt>
      <trkpt lat="49.18047" lon="2.02873">
        <ele>227</ele>
        <time>2020-05-19T14:01:21Z</time>
      </trkpt>
    </trkseg>
  </trk>
</gpx>